G31923 / PR-GXL 7700 Squawk Report (22nd of February, 2020)

Aircraft B738 Reg No. PR-GXL Age 6 years old
Model 737 Jet engines 2 First flight 21-08-13
Registered 09-13 Rollout N/A Delivered 05-09-13
Construction No. 39625 Line No. 4591 Series 8EH
ADSHEX E48E94 Airline name Gol Transportes Aéreos Owner N/A
Airfield based Sao Paulo-Congonhas~Sao Paulo~PP First tracked N/A

Flight history for PR-GXL

Route Flight No Date Playback
Santa Maria (AJU) - Congonhas (CGH) G31501 2020-03-26 17:02:00
Galeao Antonio Carlos Jobim (GIG) - Santa Maria (AJU) G32012 2020-03-26 14:45:00
Pinto Martins Intl (FOR) - Galeao Antonio Carlos Jobim (GIG) G32175 2020-03-26 11:30:00
Presidente Juscelino Kubitschek (BSB) - Pinto Martins Intl (FOR) G31710 2020-03-26 04:30:00
Val De Cans Intl (BEL) - Presidente Juscelino Kubitschek (BSB) G31751 2020-03-25 11:22:00
Presidente Juscelino Kubitschek (BSB) - Val De Cans Intl (BEL) G31754 2020-03-25 09:07:00
Galeao Antonio Carlos Jobim (GIG) - Presidente Juscelino Kubitschek (BSB) G32040 2020-03-25 00:37:00
Presidente Castro Pinto (JPA) - Galeao Antonio Carlos Jobim (GIG) G32163 2020-03-24 21:33:00
Salgado Filho (POA) - Presidente Juscelino Kubitschek (BSB) G31922 2020-03-24 14:39:00
Congonhas (CGH) - Salgado Filho (POA) G31218 2020-03-22 19:20:00
Afonso Pena (CWB) - Congonhas (CGH) G31137 2020-03-22 18:03:00
Foz do Iguaçu (IGU) - Afonso Pena (CWB) - Presidente Juscelino Kubitschek (BSB) G31785 2020-03-22 09:05:00
Guarulhos Gov Andre Franco Montoro (GRU) - Foz do Iguaçu (IGU) G31174 2020-03-22 01:32:00
Santos Dumont (SDU) - Guarulhos Gov Andre Franco Montoro (GRU) G31089 2020-03-22 00:05:00
Guarulhos Gov Andre Franco Montoro (GRU) - Santos Dumont (SDU) G31084 2020-03-21 21:51:00
Santos Dumont (SDU) - Guarulhos Gov Andre Franco Montoro (GRU) G31083 2020-03-21 15:38:00
Presidente Juscelino Kubitschek (BSB) - Santos Dumont (SDU) G32021 2020-03-21 11:36:00
Santos Dumont (SDU) - Presidente Juscelino Kubitschek (BSB) G34036 2020-03-21 02:22:00
Presidente Juscelino Kubitschek (BSB) - Santos Dumont (SDU) G34031 2020-03-20 10:35:00
Guarulhos Gov Andre Franco Montoro (GRU) - Presidente Juscelino Kubitschek (BSB) G34916 2020-03-20 02:48:00
Time Lat Lon Altitude Heading Speed Vertical Rate
2020-02-22 15:25:56 GMT -29.995235 -51.141411 25 272 139 -832
2020-02-22 15:25:37 GMT -29.995422 -51.127464 150 271 143 -896
2020-02-22 15:25:34 GMT -29.995468 -51.125153 400 272 143 -1088
2020-02-22 15:25:23 GMT -29.995609 -51.116966 575 271 142 -448
2020-02-22 15:25:08 GMT -29.995703 -51.106586 700 272 147 -1024
2020-02-22 15:25:01 GMT -29.995934 -51.099663 800 273 149 -1216
2020-02-22 15:24:51 GMT -29.996201 -51.091812 1,050 273 152 -1216
2020-02-22 15:24:40 GMT -29.996307 -51.079781 1,325 269 157 -1280
2020-02-22 15:24:29 GMT -29.996307 -51.074177 1,450 271 154 -256
2020-02-22 15:24:19 GMT -29.996492 -51.065224 1,475 273 159 -192
2020-02-22 15:24:08 GMT -29.996841 -51.055782 1,575 273 159 -1024
2020-02-22 15:23:57 GMT -29.997099 -51.046764 1,700 272 161 -832
2020-02-22 15:23:48 GMT -29.997162 -51.038605 1,850 271 165 -576
2020-02-22 15:23:45 GMT -29.997190 -51.037373 1,850 271 165 -640
2020-02-22 15:23:36 GMT -29.997284 -51.028252 2,000 271 165 -1088
2020-02-22 15:23:25 GMT -29.997377 -51.018421 2,200 271 166 -896
2020-02-22 15:23:16 GMT -29.997471 -51.010674 2,325 271 166 -832
2020-02-22 15:23:13 GMT -29.997471 -51.008919 2,350 271 167 -704
2020-02-22 15:23:05 GMT -29.997574 -51.000851 2,475 272 168 -1024
2020-02-22 15:22:53 GMT -29.997890 -50.989799 2,675 272 175 -640
2020-02-22 15:22:44 GMT -29.997704 -50.981178 2,800 259 181 -704
2020-02-22 15:22:41 GMT -29.997423 -50.979256 2,825 255 182 -768
2020-02-22 15:22:31 GMT -29.994278 -50.970478 2,975 235 185 -1216
2020-02-22 15:22:19 GMT -29.987228 -50.962936 3,225 208 189 -1408
2020-02-22 15:22:09 GMT -29.978531 -50.958523 3,450 202 189 -1344
2020-02-22 15:21:59 GMT -29.970062 -50.954643 3,675 202 188 -1472
2020-02-22 15:21:50 GMT -29.962601 -50.951199 3,900 203 185 -1216
2020-02-22 15:21:47 GMT -29.960999 -50.950443 3,925 202 185 -1088
2020-02-22 15:21:38 GMT -29.952621 -50.946781 4,050 202 186 -704
2020-02-22 15:21:27 GMT -29.943512 -50.942635 4,200 202 191 -896
2020-02-22 15:21:16 GMT -29.935043 -50.938770 4,350 203 195 -768
2020-02-22 15:21:07 GMT -29.927271 -50.935200 4,475 201 200 -1024
2020-02-22 15:20:54 GMT -29.915863 -50.930355 4,700 205 206 -960
2020-02-22 15:20:44 GMT -29.907066 -50.925564 4,850 214 208 -960
2020-02-22 15:20:33 GMT -29.899063 -50.917194 5,050 230 215 -1280
2020-02-22 15:20:21 GMT -29.892059 -50.907738 5,275 231 217 -896
2020-02-22 15:20:12 GMT -29.885187 -50.898094 5,425 231 224 -1088
2020-02-22 15:20:00 GMT -29.877739 -50.887756 5,650 230 224 -1280
2020-02-22 15:19:52 GMT -29.870911 -50.878372 5,850 231 224 -1024
2020-02-22 15:19:38 GMT -29.863913 -50.868584 6,000 231 226 -512
2020-02-22 15:19:28 GMT -29.856138 -50.857651 6,075 231 233 -448
2020-02-22 15:19:18 GMT -29.848755 -50.847420 6,150 230 237 -512
2020-02-22 15:19:07 GMT -29.841103 -50.838425 6,250 223 244 -256
2020-02-22 15:18:56 GMT -29.831680 -50.828773 6,275 222 253 -576
2020-02-22 15:18:46 GMT -29.822159 -50.819057 6,425 221 255 -1344
2020-02-22 15:18:35 GMT -29.812286 -50.809345 6,675 221 255 -1280
2020-02-22 15:18:24 GMT -29.802929 -50.800137 6,925 222 257 -1408
2020-02-22 15:18:15 GMT -29.795197 -50.792381 7,125 222 257 -1280
2020-02-22 15:18:05 GMT -29.785658 -50.782742 7,350 222 259 -1344
2020-02-22 15:17:54 GMT -29.772623 -50.769653 7,675 222 260 -1408
2020-02-22 15:17:40 GMT -29.764292 -50.761143 7,875 222 262 -1280
2020-02-22 15:17:32 GMT -29.756470 -50.753193 8,050 222 262 -1472
2020-02-22 15:17:19 GMT -29.744064 -50.740566 8,375 222 263 -1600
2020-02-22 15:17:09 GMT -29.734451 -50.731468 8,650 212 260 -1408
2020-02-22 15:16:59 GMT -29.725094 -50.725601 8,825 202 260 -1472
2020-02-22 15:16:50 GMT -29.712990 -50.721722 9,050 188 261 -1536
2020-02-22 15:16:47 GMT -29.709173 -50.721184 9,125 187 261 -1536
2020-02-22 15:16:39 GMT -29.699753 -50.719917 9,325 187 262 -1472
2020-02-22 15:16:36 GMT -29.696604 -50.719517 9,375 187 262 -1408
2020-02-22 15:16:26 GMT -29.684235 -50.717907 9,600 187 263 -1408
2020-02-22 15:16:15 GMT -29.671555 -50.716270 9,850 187 264 -1472
2020-02-22 15:16:02 GMT -29.656448 -50.714420 10,125 187 265 -1472
2020-02-22 15:15:53 GMT -29.643440 -50.712837 10,375 187 266 -1472
2020-02-22 15:15:44 GMT -29.634338 -50.711624 10,675 187 266 -1472
2020-02-22 15:15:34 GMT -29.621328 -50.709873 10,800 187 266 -1408
2020-02-22 15:15:21 GMT -29.605316 -50.707821 11,100 186 268 -1472
2020-02-22 15:15:09 GMT -29.589432 -50.705814 11,400 187 269 -1472
2020-02-22 15:15:01 GMT -29.581202 -50.704758 11,625 187 271 -1536
2020-02-22 15:14:56 GMT -29.574463 -50.703911 11,625 187 271 -1536
2020-02-22 15:14:52 GMT -29.567963 -50.703068 11,800 187 271 -1536
2020-02-22 15:14:46 GMT -29.562927 -50.702431 11,900 187 271 -1472
2020-02-22 15:14:41 GMT -29.554413 -50.701271 12,050 187 273 -1408
2020-02-22 15:14:37 GMT -29.550661 -50.700771 12,125 187 273 -1408
2020-02-22 15:14:30 GMT -29.540863 -50.699421 12,300 187 273 -1472
2020-02-22 15:14:27 GMT -29.538605 -50.699104 12,350 187 273 -1536
2020-02-22 15:14:19 GMT -29.527479 -50.697651 12,550 186 274 -1536
2020-02-22 15:14:15 GMT -29.523193 -50.697151 12,650 186 274 -1536
2020-02-22 15:14:09 GMT -29.514038 -50.696095 12,825 187 275 -1536
2020-02-22 15:13:58 GMT -29.497545 -50.693989 13,125 187 275 -1408
2020-02-22 15:13:44 GMT -29.481766 -50.691833 13,400 188 277 -1472
2020-02-22 15:13:36 GMT -29.473297 -50.690601 13,550 188 278 -1408
2020-02-22 15:13:33 GMT -29.468964 -50.689949 13,650 188 279 -1408
2020-02-22 15:13:26 GMT -29.459427 -50.688541 13,775 188 281 -960
2020-02-22 15:13:15 GMT -29.445127 -50.686501 13,975 187 284 -1600
2020-02-22 15:13:02 GMT -29.427856 -50.684456 14,425 186 281 -2688
2020-02-22 15:12:54 GMT -29.417221 -50.683311 14,775 186 278 -2816
2020-02-22 15:12:43 GMT -29.403351 -50.681831 15,200 186 277 -2176
2020-02-22 15:12:40 GMT -29.400532 -50.681492 15,300 186 277 -2176
2020-02-22 15:12:30 GMT -29.386192 -50.679771 15,700 187 277 -2304
2020-02-22 15:12:19 GMT -29.373138 -50.677925 15,975 188 279 -1984
2020-02-22 15:12:11 GMT -29.362289 -50.676392 16,325 187 281 -1984
2020-02-22 15:12:08 GMT -29.358627 -50.675919 16,400 187 282 -1984
2020-02-22 15:12:00 GMT -29.347927 -50.674492 16,650 187 284 -1984
2020-02-22 15:11:56 GMT -29.344250 -50.674007 16,750 187 285 -2112
2020-02-22 15:11:49 GMT -29.334000 -50.672642 17,025 187 286 -2304
2020-02-22 15:11:46 GMT -29.330051 -50.672123 17,125 187 286 -2368
2020-02-22 15:11:36 GMT -29.316273 -50.670452 17,525 187 286 -2368
2020-02-22 15:11:28 GMT -29.305481 -50.669106 17,825 187 287 -2048
2020-02-22 15:11:25 GMT -29.302540 -50.668785 17,900 187 287 -1856
2020-02-22 15:11:17 GMT -29.291656 -50.667362 18,075 187 293 -128
2020-02-22 15:11:14 GMT -29.288109 -50.666901 18,075 187 295 64
2020-02-22 15:11:03 GMT -29.272652 -50.664852 18,125 187 308 -768
2020-02-22 15:10:56 GMT -29.262085 -50.663452 18,200 187 317 -896
2020-02-22 15:10:45 GMT -29.241650 -50.660759 18,400 187 330 -1152
2020-02-22 15:10:32 GMT -29.225327 -50.658646 18,550 187 341 -512
2020-02-22 15:10:21 GMT -29.206549 -50.656235 18,675 187 351 -1344
2020-02-22 15:10:13 GMT -29.194910 -50.654675 18,850 187 354 -2048
2020-02-22 15:10:10 GMT -29.191000 -50.654190 18,925 187 355 -2048
2020-02-22 15:10:02 GMT -29.170656 -50.651550 19,325 187 358 -2048
2020-02-22 15:09:51 GMT -29.159391 -50.650150 19,525 187 361 -1984
2020-02-22 15:09:48 GMT -29.156736 -50.649826 19,675 187 363 -1984
2020-02-22 15:09:40 GMT -29.131926 -50.646812 20,025 187 366 -1856
2020-02-22 15:09:30 GMT -29.123474 -50.645809 20,175 187 369 -1408
2020-02-22 15:09:27 GMT -29.118027 -50.645123 20,250 187 371 -1216
2020-02-22 15:09:19 GMT -29.104980 -50.643539 20,375 187 376 -1280
2020-02-22 15:09:16 GMT -29.101154 -50.643093 20,425 187 377 -1472
2020-02-22 15:09:06 GMT -29.081955 -50.640633 20,725 187 383 -1728
2020-02-22 15:08:57 GMT -29.061447 -50.637890 21,075 187 385 -2880
2020-02-22 15:08:47 GMT -29.043777 -50.635460 21,675 187 379 -4352
2020-02-22 15:08:36 GMT -29.030163 -50.633564 22,200 187 374 -4224
2020-02-22 15:08:32 GMT -29.024670 -50.632809 22,425 187 372 -4096
2020-02-22 15:08:25 GMT -29.012009 -50.631073 22,900 187 368 -3520
2020-02-22 15:08:15 GMT -28.993103 -50.628540 23,450 187 366 -2368
2020-02-22 15:08:12 GMT -28.988031 -50.627907 23,550 187 366 -2304
2020-02-22 15:08:04 GMT -28.975525 -50.626266 23,825 187 367 -2304
2020-02-22 15:08:00 GMT -28.969784 -50.625484 23,950 187 367 -2304
2020-02-22 15:07:50 GMT -28.952839 -50.623329 24,325 187 368 -2240
2020-02-22 15:07:40 GMT -28.934498 -50.620960 24,700 187 369 -2304
2020-02-22 15:07:32 GMT -28.920856 -50.619129 25,000 187 370 -2304
2020-02-22 15:07:29 GMT -28.916428 -50.618557 25,100 187 371 -2304
2020-02-22 15:07:21 GMT -28.897980 -50.616127 25,475 187 372 -2304
2020-02-22 15:07:07 GMT -28.879799 -50.613796 25,875 187 373 -2304
2020-02-22 15:06:59 GMT -28.864622 -50.611858 26,200 187 374 -2304
2020-02-22 15:06:56 GMT -28.859781 -50.611267 26,300 187 375 -2368
2020-02-22 15:06:49 GMT -28.846653 -50.609596 26,575 187 376 -2304
2020-02-22 15:06:46 GMT -28.841446 -50.608944 26,700 187 376 -2368
2020-02-22 15:06:38 GMT -28.822723 -50.606670 27,025 187 377 -2304
2020-02-22 15:06:27 GMT -28.803864 -50.604347 27,425 187 378 -2304
2020-02-22 15:06:23 GMT -28.803864 -50.604347 27,500 187 379 -2304
2020-02-22 15:06:14 GMT -28.786041 -50.602112 27,875 187 380 -2304
2020-02-22 15:06:03 GMT -28.767141 -50.599689 28,275 187 381 -2368
2020-02-22 15:05:53 GMT -28.751640 -50.597641 28,600 187 382 -2368
2020-02-22 15:05:48 GMT -28.742470 -50.596401 28,800 187 382 -2368
2020-02-22 15:05:41 GMT -28.729759 -50.594734 29,075 187 383 -2432
2020-02-22 15:05:32 GMT -28.714212 -50.592632 29,425 187 384 -2432
2020-02-22 15:05:23 GMT -28.696474 -50.590210 29,800 187 386 -2432
2020-02-22 15:05:19 GMT -28.689354 -50.589294 29,950 187 387 -2368
2020-02-22 15:05:10 GMT -28.675806 -50.587463 30,225 187 388 -2368
2020-02-22 15:05:07 GMT -28.669739 -50.586655 30,350 187 388 -2368
2020-02-22 15:05:00 GMT -28.656487 -50.584877 30,650 187 390 -2432
2020-02-22 15:04:57 GMT -28.651062 -50.584171 30,750 187 391 -2432
2020-02-22 15:04:51 GMT -28.638794 -50.582584 31,025 187 392 -2496
2020-02-22 15:04:48 GMT -28.633396 -50.581863 31,125 187 392 -2496
2020-02-22 15:04:40 GMT -28.619293 -50.580051 31,450 187 394 -2368
2020-02-22 15:04:37 GMT -28.613846 -50.579330 31,550 187 394 -2304
2020-02-22 15:04:31 GMT -28.605093 -50.578255 31,725 187 395 -2432
2020-02-22 15:04:28 GMT -28.600019 -50.577553 31,825 187 395 -2688
2020-02-22 15:04:25 GMT -28.594200 -50.576801 31,975 187 394 -3264
2020-02-22 15:04:19 GMT -28.580017 -50.574875 32,375 187 393 -3328
2020-02-22 15:04:15 GMT -28.574554 -50.574162 32,525 187 392 -3264
2020-02-22 15:04:08 GMT -28.560471 -50.572235 32,925 187 391 -3072
2020-02-22 15:04:05 GMT -28.555096 -50.571522 33,075 187 390 -3072
2020-02-22 15:03:58 GMT -28.544632 -50.570122 33,350 187 390 -2944
2020-02-22 15:03:54 GMT -28.536713 -50.569065 33,550 187 391 -2432
2020-02-22 15:03:48 GMT -28.526642 -50.567799 33,775 187 392 -1984
2020-02-22 15:03:42 GMT -28.516525 -50.566528 33,950 187 392 -1408
2020-02-22 15:03:36 GMT -28.502747 -50.564785 34,125 187 393 -1024
2020-02-22 15:03:30 GMT -28.492994 -50.563606 34,200 187 393 -1024
2020-02-22 15:03:25 GMT -28.478119 -50.561775 34,350 188 390 -832
2020-02-22 15:03:13 GMT -28.464180 -50.559566 34,450 191 386 -768
2020-02-22 15:03:10 GMT -28.458548 -50.558380 34,525 192 385 -960
2020-02-22 15:03:03 GMT -28.445572 -50.555332 34,625 192 385 -1088
2020-02-22 15:02:59 GMT -28.438614 -50.553696 34,700 192 384 -1024
2020-02-22 15:02:53 GMT -28.426426 -50.550735 34,825 193 383 -1024
2020-02-22 15:02:50 GMT -28.421219 -50.549469 34,875 193 383 -1024
2020-02-22 15:02:42 GMT -28.407619 -50.546104 35,000 193 384 -1024
2020-02-22 15:02:38 GMT -28.401381 -50.544594 35,050 193 384 -1024
2020-02-22 15:02:31 GMT -28.389509 -50.541687 35,175 193 384 -1024
2020-02-22 15:02:27 GMT -28.380844 -50.539539 35,250 193 384 -1024
2020-02-22 15:02:20 GMT -28.370050 -50.536896 35,350 193 383 -1088
2020-02-22 15:02:16 GMT -28.364822 -50.535629 35,400 193 383 -1088
2020-02-22 15:02:10 GMT -28.351639 -50.532410 35,525 193 383 -1088
2020-02-22 15:01:59 GMT -28.333227 -50.527901 35,700 193 383 -1088
2020-02-22 15:01:51 GMT -28.318954 -50.524433 35,850 193 384 -1088
2020-02-22 15:01:47 GMT -28.314421 -50.523376 35,900 193 384 -960
2020-02-22 15:01:43 GMT -28.305725 -50.521263 35,975 193 384 -448
2020-02-22 15:01:38 GMT -28.296312 -50.519012 36,000 193 384 0
2020-02-22 15:01:31 GMT -28.286224 -50.516563 36,000 193 384 0
2020-02-22 15:01:27 GMT -28.277506 -50.514488 36,000 193 384 0
2020-02-22 15:01:15 GMT -28.258698 -50.509914 36,000 193 384 -64
2020-02-22 15:01:07 GMT -28.244034 -50.506413 36,000 193 384 0
2020-02-22 15:01:04 GMT -28.239487 -50.505314 36,000 193 384 0
2020-02-22 15:00:55 GMT -28.221037 -50.500919 36,000 193 384 0
2020-02-22 15:00:44 GMT -28.203232 -50.496597 36,000 193 384 0
2020-02-22 15:00:32 GMT -28.183376 -50.491817 36,000 193 384 0
2020-02-22 15:00:23 GMT -28.165268 -50.487453 36,000 193 384 0
2020-02-22 15:00:11 GMT -28.145063 -50.482555 36,000 193 384 0
2020-02-22 15:00:01 GMT -28.127975 -50.478481 36,000 193 384 0
2020-02-22 14:59:50 GMT -28.109451 -50.473991 36,000 193 385 0
2020-02-22 14:59:40 GMT -28.090942 -50.469555 36,000 192 385 0
2020-02-22 14:59:31 GMT -28.076294 -50.466015 36,000 192 385 0
2020-02-22 14:59:20 GMT -28.057388 -50.461525 36,000 192 385 0
2020-02-22 14:59:16 GMT -28.051117 -50.459995 36,000 192 385 0
2020-02-22 14:59:06 GMT -28.020769 -50.452663 36,000 193 385 0
2020-02-22 14:58:57 GMT -28.015503 -50.451439 36,000 193 385 0
2020-02-22 14:58:46 GMT -27.996330 -50.446796 36,000 192 385 0
2020-02-22 14:58:35 GMT -27.977783 -50.442352 36,000 192 385 0
2020-02-22 14:58:32 GMT -27.972198 -50.441032 36,000 192 385 0
2020-02-22 14:58:24 GMT -27.959274 -50.437962 36,000 192 386 0
2020-02-22 14:58:14 GMT -27.940018 -50.433319 36,000 192 385 0
2020-02-22 14:58:10 GMT -27.933014 -50.431652 36,000 192 385 0
2020-02-22 14:58:03 GMT -27.921474 -50.428883 36,000 193 385 0
2020-02-22 14:57:58 GMT -27.907837 -50.425640 36,000 192 385 0
2020-02-22 14:57:51 GMT -27.902620 -50.424393 36,000 192 385 0
2020-02-22 14:57:42 GMT -27.884079 -50.419937 36,000 192 386 0
2020-02-22 14:57:31 GMT -27.864820 -50.415363 36,000 192 386 0
2020-02-22 14:57:19 GMT -27.834366 -50.408073 36,000 193 386 0
2020-02-22 14:57:09 GMT -27.827717 -50.406487 36,000 193 386 0
2020-02-22 14:57:03 GMT -27.816193 -50.403721 36,000 192 386 0
2020-02-22 14:56:59 GMT -27.808817 -50.401947 36,000 192 386 0
2020-02-22 14:56:53 GMT -27.800034 -50.399883 36,000 192 386 0
2020-02-22 14:56:48 GMT -27.790569 -50.397614 36,000 192 387 0
2020-02-22 14:56:43 GMT -27.781128 -50.395374 36,000 192 387 0
2020-02-22 14:56:36 GMT -27.771286 -50.393044 36,000 192 387 0
2020-02-22 14:56:32 GMT -27.762499 -50.390961 36,000 192 387 0
2020-02-22 14:56:25 GMT -27.751978 -50.388477 36,000 192 387 0
2020-02-22 14:56:20 GMT -27.742493 -50.386204 36,000 192 387 0
2020-02-22 14:56:16 GMT -27.733337 -50.384026 36,000 193 387 0
2020-02-22 14:56:09 GMT -27.719669 -50.380764 36,000 193 387 0
2020-02-22 14:56:05 GMT -27.714735 -50.379604 36,000 193 387 0
2020-02-22 14:55:53 GMT -27.695835 -50.375008 36,000 193 387 -64
2020-02-22 14:55:49 GMT -27.684568 -50.372314 36,000 193 387 -64
2020-02-22 14:55:43 GMT -27.676842 -50.370464 36,000 193 387 -64
2020-02-22 14:55:37 GMT -27.661789 -50.366875 36,000 192 387 0
2020-02-22 14:55:33 GMT -27.658640 -50.366135 36,000 192 387 0
2020-02-22 14:55:22 GMT -27.639313 -50.361534 36,000 193 387 0
2020-02-22 14:55:11 GMT -27.619303 -50.356731 36,000 193 387 0
2020-02-22 14:55:07 GMT -27.612274 -50.355095 36,000 193 387 0
2020-02-22 14:55:00 GMT -27.600309 -50.352242 36,000 193 387 0
2020-02-22 14:54:56 GMT -27.593281 -50.350552 36,000 192 388 0
2020-02-22 14:54:51 GMT -27.587311 -50.349152 36,000 192 388 0
2020-02-22 14:54:48 GMT -27.579920 -50.347385 36,000 192 388 0
2020-02-22 14:54:45 GMT -27.575363 -50.346298 36,000 192 388 0
2020-02-22 14:54:38 GMT -27.558426 -50.342308 36,000 192 388 0
2020-02-22 14:54:35 GMT -27.555992 -50.341679 36,000 193 388 -64
2020-02-22 14:54:27 GMT -27.545059 -50.339096 36,000 193 388 -64
2020-02-22 14:54:24 GMT -27.536591 -50.337074 36,000 192 388 0
2020-02-22 14:54:18 GMT -27.526749 -50.334743 36,000 193 388 0
2020-02-22 14:54:12 GMT -27.516907 -50.332413 36,000 193 388 0
2020-02-22 14:54:07 GMT -27.506332 -50.329872 36,000 193 388 0
2020-02-22 14:54:02 GMT -27.499283 -50.328213 36,000 193 388 0
2020-02-22 14:53:58 GMT -27.493286 -50.326786 36,000 193 388 -64
2020-02-22 14:53:55 GMT -27.488398 -50.325623 36,000 193 388 -64
2020-02-22 14:53:50 GMT -27.476389 -50.322769 36,000 192 388 0
2020-02-22 14:53:46 GMT -27.469711 -50.321167 36,000 192 388 0
2020-02-22 14:53:39 GMT -27.457394 -50.318279 36,000 192 388 0
2020-02-22 14:53:35 GMT -27.451401 -50.316814 36,000 192 389 0
2020-02-22 14:53:27 GMT -27.438354 -50.313740 36,000 192 389 -64
2020-02-22 14:53:24 GMT -27.431625 -50.312149 36,000 192 389 0
2020-02-22 14:53:16 GMT -27.419632 -50.309349 36,000 193 389 0
2020-02-22 14:53:12 GMT -27.412537 -50.307640 36,000 192 390 -64
2020-02-22 14:53:07 GMT -27.400543 -50.304790 36,000 192 390 -64
2020-02-22 14:53:03 GMT -27.394135 -50.303288 36,000 192 390 -64
2020-02-22 14:52:56 GMT -27.381409 -50.300282 36,000 192 390 -64
2020-02-22 14:52:52 GMT -27.375368 -50.298843 36,000 192 391 -64
2020-02-22 14:52:45 GMT -27.361916 -50.295673 36,000 193 391 0
2020-02-22 14:52:40 GMT -27.355865 -50.294216 36,000 193 391 -64
2020-02-22 14:52:34 GMT -27.342735 -50.291080 36,000 192 392 0
2020-02-22 14:52:30 GMT -27.337009 -50.289761 36,000 193 392 0
2020-02-22 14:52:23 GMT -27.324207 -50.286694 36,000 192 393 -64
2020-02-22 14:52:20 GMT -27.317413 -50.285099 36,000 192 394 0
2020-02-22 14:52:12 GMT -27.304192 -50.281994 36,000 192 394 -64
2020-02-22 14:52:09 GMT -27.298828 -50.280693 36,000 192 394 0
2020-02-22 14:51:59 GMT -27.280884 -50.276497 36,000 192 395 0
2020-02-22 14:51:47 GMT -27.247538 -50.268631 36,000 192 395 0
2020-02-22 14:51:36 GMT -27.238541 -50.266495 36,000 192 395 -64
2020-02-22 14:51:26 GMT -27.221329 -50.262398 36,000 193 395 -64
2020-02-22 14:51:15 GMT -27.202652 -50.257942 36,000 192 396 -64
2020-02-22 14:51:04 GMT -27.182556 -50.253174 36,000 192 396 -64
2020-02-22 14:50:54 GMT -27.163509 -50.248665 36,000 192 395 0
2020-02-22 14:50:44 GMT -27.145935 -50.244469 36,000 192 395 0
2020-02-22 14:50:32 GMT -27.125477 -50.239685 36,000 192 395 0
2020-02-22 14:50:22 GMT -27.105743 -50.234985 36,000 192 395 0
2020-02-22 14:50:11 GMT -27.086380 -50.230427 36,000 192 394 0
2020-02-22 14:49:59 GMT -27.067795 -50.226021 36,000 192 394 0
2020-02-22 14:49:49 GMT -27.048477 -50.221458 36,000 192 394 0
2020-02-22 14:49:39 GMT -27.029205 -50.216900 36,000 192 393 64
2020-02-22 14:49:28 GMT -27.010620 -50.212547 36,000 192 393 0
2020-02-22 14:49:16 GMT -26.990616 -50.207882 36,000 192 393 0
2020-02-22 14:49:07 GMT -26.972076 -50.203583 36,000 192 393 0
2020-02-22 14:48:55 GMT -26.951385 -50.198814 36,000 192 393 0
2020-02-22 14:48:45 GMT -26.933533 -50.194668 36,000 192 393 0
2020-02-22 14:48:33 GMT -26.913944 -50.190090 36,000 192 392 0
2020-02-22 14:48:22 GMT -26.894018 -50.185387 36,000 193 392 0
2020-02-22 14:48:12 GMT -26.874746 -50.180794 36,000 193 393 -64
2020-02-22 14:48:01 GMT -26.855520 -50.176197 36,000 193 393 64
2020-02-22 14:47:50 GMT -26.837311 -50.171867 36,000 192 394 0
2020-02-22 14:47:41 GMT -26.818325 -50.167431 36,000 192 395 -64
2020-02-22 14:47:32 GMT -26.804686 -50.164207 36,000 192 395 0
2020-02-22 14:47:29 GMT -26.797897 -50.162640 36,000 192 395 0
2020-02-22 14:47:20 GMT -26.781372 -50.158806 36,000 192 396 -64
2020-02-22 14:47:09 GMT -26.762323 -50.154331 36,000 192 396 0
2020-02-22 14:46:58 GMT -26.742865 -50.149788 36,000 192 397 -64
2020-02-22 14:46:45 GMT -26.709961 -50.142120 36,000 192 400 0
2020-02-22 14:46:37 GMT -26.703415 -50.140564 36,000 192 400 -64
2020-02-22 14:46:25 GMT -26.684114 -50.136055 36,000 192 401 0
2020-02-22 14:46:15 GMT -26.664425 -50.131409 36,000 192 401 -64
2020-02-22 14:46:05 GMT -26.645477 -50.126972 36,000 192 402 0
2020-02-22 14:45:54 GMT -26.625412 -50.122272 36,000 192 402 0
2020-02-22 14:45:42 GMT -26.605682 -50.117661 36,000 192 402 64
2020-02-22 14:45:32 GMT -26.586309 -50.113132 36,000 192 402 0
2020-02-22 14:45:22 GMT -26.566616 -50.108536 36,000 192 402 64
2020-02-22 14:45:13 GMT -26.552000 -50.105103 36,000 192 402 64
2020-02-22 14:45:09 GMT -26.542458 -50.102886 36,000 192 402 64
2020-02-22 14:45:03 GMT -26.533356 -50.100765 36,000 192 402 -64
2020-02-22 14:44:58 GMT -26.523102 -50.098381 36,000 192 402 0
2020-02-22 14:44:52 GMT -26.514359 -50.096359 36,000 192 402 0
2020-02-22 14:44:47 GMT -26.503773 -50.093853 36,000 192 402 128
2020-02-22 14:44:39 GMT -26.484034 -50.089256 36,000 192 402 -64
2020-02-22 14:44:26 GMT -26.462109 -50.084187 36,000 192 403 64
2020-02-22 14:44:20 GMT -26.455498 -50.082657 36,000 192 403 -64
2020-02-22 14:44:17 GMT -26.449633 -50.081284 36,000 192 403 -128
2020-02-22 14:44:12 GMT -26.436813 -50.078327 36,000 192 403 0
2020-02-22 14:44:07 GMT -26.429150 -50.076530 36,000 192 403 0
2020-02-22 14:44:00 GMT -26.416306 -50.073559 36,000 192 403 -64
2020-02-22 14:43:56 GMT -26.409714 -50.072002 36,000 192 404 -64
2020-02-22 14:43:48 GMT -26.396530 -50.068947 36,000 192 404 0
2020-02-22 14:43:44 GMT -26.389938 -50.067444 36,000 192 404 0
2020-02-22 14:43:37 GMT -26.376709 -50.064335 36,000 192 404 0
2020-02-22 14:43:33 GMT -26.370117 -50.062832 36,000 192 404 0
2020-02-22 14:43:22 GMT -26.337440 -50.055244 36,000 192 404 0
2020-02-22 14:43:13 GMT -26.331207 -50.053764 36,000 192 405 0
2020-02-22 14:43:05 GMT -26.318308 -50.050804 36,000 192 405 0
2020-02-22 14:43:01 GMT -26.310608 -50.048996 36,000 192 405 0
2020-02-22 14:42:58 GMT -26.302853 -50.047215 36,000 192 405 -64
2020-02-22 14:42:54 GMT -26.298429 -50.046158 36,000 192 405 0
2020-02-22 14:42:51 GMT -26.291473 -50.044537 36,000 192 405 0
2020-02-22 14:42:47 GMT -26.282974 -50.042564 36,000 192 405 0
2020-02-22 14:42:44 GMT -26.278551 -50.041561 36,000 192 405 0
2020-02-22 14:42:41 GMT -26.271196 -50.039871 36,000 192 405 0
2020-02-22 14:42:36 GMT -26.262352 -50.037811 36,000 192 405 0
2020-02-22 14:42:33 GMT -26.258675 -50.036968 36,000 192 405 0
2020-02-22 14:42:30 GMT -26.250961 -50.035160 36,000 192 405 0
2020-02-22 14:42:26 GMT -26.244324 -50.033604 36,000 192 405 0
2020-02-22 14:42:22 GMT -26.239540 -50.032478 36,000 192 405 0
2020-02-22 14:42:19 GMT -26.231827 -50.030701 36,000 192 405 0
2020-02-22 14:42:15 GMT -26.224087 -50.028885 36,000 192 405 0
2020-02-22 14:42:11 GMT -26.219664 -50.027882 36,000 192 405 0
2020-02-22 14:42:08 GMT -26.212309 -50.026138 36,000 192 405 0
2020-02-22 14:42:04 GMT -26.199785 -50.023235 36,000 192 405 0
2020-02-22 14:41:58 GMT -26.192430 -50.021545 36,000 192 405 0
2020-02-22 14:41:50 GMT -26.172600 -50.016895 36,000 192 405 0
2020-02-22 14:41:47 GMT -26.172600 -50.016895 36,000 192 405 0
2020-02-22 14:41:42 GMT -26.160076 -50.013992 36,000 192 405 0
2020-02-22 14:41:39 GMT -26.152359 -50.012199 36,000 192 405 0
2020-02-22 14:41:36 GMT -26.152359 -50.012199 36,000 192 405 0
2020-02-22 14:41:31 GMT -26.140594 -50.009506 36,000 192 405 0
2020-02-22 14:41:25 GMT -26.133224 -50.007797 36,000 192 405 0
2020-02-22 14:41:21 GMT -26.124390 -50.005775 36,000 192 405 0
2020-02-22 14:41:18 GMT -26.120728 -50.004894 36,000 192 405 0
2020-02-22 14:41:15 GMT -26.112967 -50.003109 36,000 192 405 0
2020-02-22 14:41:10 GMT -26.104912 -50.001263 36,000 192 405 0
2020-02-22 14:41:07 GMT -26.101593 -50.000488 36,000 192 405 0
2020-02-22 14:41:04 GMT -26.081726 -49.995876 36,000 192 405 0
2020-02-22 14:40:56 GMT -26.081726 -49.995876 36,000 192 405 0
2020-02-22 14:40:53 GMT -26.074001 -49.994080 36,000 192 405 0
2020-02-22 14:40:46 GMT -26.062223 -49.991386 36,000 192 405 0
2020-02-22 14:40:42 GMT -26.053757 -49.989399 36,000 192 404 0
2020-02-22 14:40:32 GMT -26.034292 -49.984886 36,000 192 404 0
2020-02-22 14:40:24 GMT -26.022171 -49.982094 36,000 192 404 0
2020-02-22 14:40:19 GMT -26.006744 -49.978516 36,000 192 404 -64
2020-02-22 14:40:13 GMT -25.988434 -49.974266 36,000 192 404 0
2020-02-22 14:40:06 GMT -25.984388 -49.973320 36,000 192 404 0
2020-02-22 14:40:03 GMT -25.982899 -49.973003 36,000 192 404 0
2020-02-22 14:39:58 GMT -25.963114 -49.968407 36,000 192 404 0
2020-02-22 14:39:52 GMT -25.963114 -49.968407 36,000 192 404 0
2020-02-22 14:39:49 GMT -25.955061 -49.966560 36,000 192 404 -64
2020-02-22 14:39:42 GMT -25.944029 -49.964024 36,000 192 404 0
2020-02-22 14:39:38 GMT -25.934875 -49.961933 36,000 192 404 0
2020-02-22 14:39:30 GMT -25.922054 -49.958954 36,000 192 404 0
2020-02-22 14:39:27 GMT -25.916189 -49.957634 36,000 192 404 -64
2020-02-22 14:39:22 GMT -25.908089 -49.955730 36,000 192 404 0
2020-02-22 14:39:18 GMT -25.901138 -49.954159 36,000 192 404 0
2020-02-22 14:39:15 GMT -25.896358 -49.953037 36,000 192 404 0
2020-02-22 14:39:09 GMT -25.884626 -49.950344 36,000 192 404 0
2020-02-22 14:39:06 GMT -25.876574 -49.948498 36,000 192 404 -64
2020-02-22 14:39:01 GMT -25.868866 -49.946751 36,000 192 403 0
2020-02-22 14:38:55 GMT -25.856789 -49.943954 36,000 192 403 0
2020-02-22 14:38:50 GMT -25.842125 -49.940575 36,000 192 403 0
2020-02-22 14:38:46 GMT -25.842125 -49.940575 36,000 192 403 0
2020-02-22 14:38:43 GMT -25.837004 -49.939358 36,000 192 403 0
2020-02-22 14:38:38 GMT -25.827118 -49.937084 36,000 192 403 0
2020-02-22 14:38:33 GMT -25.817596 -49.934895 36,000 192 403 0
2020-02-22 14:38:27 GMT -25.807343 -49.932556 36,000 192 402 0
2020-02-22 14:38:23 GMT -25.797867 -49.930370 36,000 192 401 0
2020-02-22 14:38:16 GMT -25.787287 -49.927937 36,000 192 401 0
2020-02-22 14:38:12 GMT -25.777790 -49.925762 36,000 192 401 0
2020-02-22 14:38:05 GMT -25.767242 -49.923351 36,000 192 401 0
2020-02-22 14:38:01 GMT -25.759232 -49.921467 36,000 192 400 0
2020-02-22 14:37:57 GMT -25.750137 -49.919388 36,000 192 400 0
2020-02-22 14:37:54 GMT -25.748337 -49.918976 36,000 192 400 0
2020-02-22 14:37:50 GMT -25.738861 -49.916790 36,000 192 400 0
2020-02-22 14:37:44 GMT -25.729050 -49.914570 36,000 192 400 0
2020-02-22 14:37:40 GMT -25.719955 -49.912464 36,000 192 400 -64
2020-02-22 14:37:33 GMT -25.708706 -49.909904 36,000 192 399 64
2020-02-22 14:37:29 GMT -25.700363 -49.907990 36,000 192 399 64
2020-02-22 14:37:22 GMT -25.689852 -49.905552 36,000 192 399 128
2020-02-22 14:37:17 GMT -25.680403 -49.903374 36,000 192 400 -64
2020-02-22 14:37:12 GMT -25.671000 -49.901199 36,000 192 400 -64
2020-02-22 14:37:07 GMT -25.660446 -49.898785 36,000 192 400 0
2020-02-22 14:37:01 GMT -25.651749 -49.896801 36,000 192 400 64
2020-02-22 14:36:55 GMT -25.639017 -49.893890 36,000 192 400 0
2020-02-22 14:36:50 GMT -25.631756 -49.892235 36,000 192 400 0
2020-02-22 14:36:45 GMT -25.621948 -49.889984 36,000 192 400 0
2020-02-22 14:36:39 GMT -25.612158 -49.887726 36,000 192 400 -64
2020-02-22 14:36:35 GMT -25.602707 -49.885548 36,000 192 400 0
2020-02-22 14:36:29 GMT -25.593258 -49.883369 36,000 192 400 64
2020-02-22 14:36:24 GMT -25.583109 -49.880985 36,000 192 400 0
2020-02-22 14:36:18 GMT -25.573288 -49.878742 36,000 192 400 0
2020-02-22 14:36:14 GMT -25.563511 -49.876480 36,000 192 400 0
2020-02-22 14:36:07 GMT -25.553696 -49.874218 36,000 192 400 0
2020-02-22 14:36:02 GMT -25.542801 -49.871723 36,000 192 401 0
2020-02-22 14:35:57 GMT -25.534790 -49.869843 36,000 192 401 -64
2020-02-22 14:35:52 GMT -25.523117 -49.867199 36,000 192 401 64
2020-02-22 14:35:46 GMT -25.515106 -49.865368 36,000 192 401 64
2020-02-22 14:35:35 GMT -25.495468 -49.860840 36,000 192 401 -64
2020-02-22 14:35:25 GMT -25.475784 -49.856312 36,000 192 401 0
2020-02-22 14:35:14 GMT -25.456833 -49.851990 36,000 192 402 0
2020-02-22 14:35:09 GMT -25.445499 -49.849426 36,000 192 402 -64
2020-02-22 14:35:03 GMT -25.436749 -49.847404 36,000 192 403 -64
2020-02-22 14:34:57 GMT -25.423574 -49.844452 36,000 192 403 -64
2020-02-22 14:34:52 GMT -25.417328 -49.843037 36,000 192 403 0
2020-02-22 14:34:46 GMT -25.405655 -49.840393 36,000 192 403 0
2020-02-22 14:34:43 GMT -25.396866 -49.838409 36,000 192 403 0
2020-02-22 14:34:37 GMT -25.386238 -49.836056 36,000 192 403 0
2020-02-22 14:34:32 GMT -25.377439 -49.834038 36,000 192 403 -64
2020-02-22 14:34:26 GMT -25.353977 -49.828751 36,000 192 404 0
2020-02-22 14:34:19 GMT -25.353977 -49.828751 36,000 192 404 0
2020-02-22 14:34:14 GMT -25.347015 -49.827168 36,000 192 405 0
2020-02-22 14:34:09 GMT -25.337824 -49.825069 36,000 192 406 -64
2020-02-22 14:34:03 GMT -25.326744 -49.822533 36,000 192 406 0
2020-02-22 14:34:00 GMT -25.317900 -49.820511 36,000 192 407 0
2020-02-22 14:33:54 GMT -25.307922 -49.818218 36,000 192 408 -64
2020-02-22 14:33:48 GMT -25.298264 -49.816029 36,000 192 408 -64
2020-02-22 14:33:43 GMT -25.287918 -49.813641 36,000 192 408 -64
2020-02-22 14:33:37 GMT -25.267485 -49.809006 36,000 192 409 0
2020-02-22 14:33:31 GMT -25.267485 -49.809006 36,000 192 409 0
2020-02-22 14:33:27 GMT -25.245930 -49.804085 36,000 192 409 0
2020-02-22 14:33:21 GMT -25.245930 -49.804085 36,000 192 409 0
2020-02-22 14:33:17 GMT -25.237738 -49.802216 36,000 192 410 0
2020-02-22 14:33:11 GMT -25.227308 -49.799831 36,000 192 410 0
2020-02-22 14:33:04 GMT -25.216883 -49.797451 36,000 192 410 0
2020-02-22 14:33:00 GMT -25.207945 -49.795429 36,000 192 410 0
2020-02-22 14:32:54 GMT -25.197515 -49.793045 36,000 192 411 0
2020-02-22 14:32:48 GMT -25.187042 -49.790661 36,000 192 411 -64
2020-02-22 14:32:44 GMT -25.166519 -49.785969 36,000 192 411 0
2020-02-22 14:32:38 GMT -25.166519 -49.785969 36,000 192 411 0
2020-02-22 14:32:33 GMT -25.147427 -49.781696 36,000 192 412 -64
2020-02-22 14:32:28 GMT -25.147427 -49.781696 36,000 192 411 0
2020-02-22 14:32:23 GMT -25.138870 -49.779713 36,000 192 411 0
2020-02-22 14:32:16 GMT -25.126877 -49.777020 36,000 192 412 0
2020-02-22 14:32:11 GMT -25.117538 -49.774906 36,000 192 412 0
2020-02-22 14:32:05 GMT -25.107422 -49.772594 36,000 192 412 0
2020-02-22 14:32:02 GMT -25.098034 -49.770500 36,000 192 412 0
2020-02-22 14:31:56 GMT -25.086815 -49.767963 36,000 192 412 -64
2020-02-22 14:31:51 GMT -25.078575 -49.766098 36,000 192 412 0
2020-02-22 14:31:45 GMT -25.066610 -49.763351 36,000 192 412 -64
2020-02-22 14:31:41 GMT -25.061737 -49.762268 36,000 192 412 64
2020-02-22 14:31:38 GMT -25.054602 -49.760654 36,000 192 412 64
2020-02-22 14:31:32 GMT -25.042282 -49.757843 36,000 192 412 64
2020-02-22 14:31:29 GMT -25.037750 -49.756824 36,000 192 412 0
2020-02-22 14:31:18 GMT -25.018661 -49.752522 36,000 192 413 -64
2020-02-22 14:31:10 GMT -25.002136 -49.748791 36,000 192 413 0
2020-02-22 14:31:06 GMT -24.994263 -49.747009 36,000 192 412 0
2020-02-22 14:30:57 GMT -24.977783 -49.743244 36,000 192 413 0
2020-02-22 14:30:54 GMT -24.974030 -49.742432 36,000 192 412 -64
2020-02-22 14:30:46 GMT -24.956772 -49.738514 36,000 192 412 0
2020-02-22 14:30:43 GMT -24.953796 -49.737854 36,000 192 412 0
2020-02-22 14:30:38 GMT -24.941025 -49.734955 36,000 192 412 0
2020-02-22 14:30:34 GMT -24.934683 -49.733501 36,000 192 412 0
2020-02-22 14:30:26 GMT -24.921926 -49.730652 36,000 192 412 0
2020-02-22 14:30:23 GMT -24.914841 -49.729004 36,000 192 412 0
2020-02-22 14:30:15 GMT -24.900232 -49.725727 36,000 192 412 0
2020-02-22 14:30:12 GMT -24.894228 -49.724380 36,000 192 412 0
2020-02-22 14:30:05 GMT -24.879984 -49.721169 36,000 192 412 0
2020-02-22 14:30:02 GMT -24.874023 -49.719818 36,000 192 412 0
2020-02-22 14:29:53 GMT -24.859035 -49.716450 36,000 192 412 0
2020-02-22 14:29:50 GMT -24.853821 -49.715309 36,000 192 411 0
2020-02-22 14:29:42 GMT -24.838486 -49.711864 36,000 192 411 0
2020-02-22 14:29:39 GMT -24.833616 -49.710751 36,000 192 411 0
2020-02-22 14:29:31 GMT -24.816439 -49.706863 36,000 192 411 0
2020-02-22 14:29:23 GMT -24.794792 -49.702045 36,000 192 410 0
2020-02-22 14:29:19 GMT -24.794792 -49.702045 36,000 192 410 0
2020-02-22 14:29:10 GMT -24.778748 -49.698437 36,000 192 409 -64
2020-02-22 14:29:07 GMT -24.773191 -49.697174 36,000 192 409 0
2020-02-22 14:29:01 GMT -24.755316 -49.693130 36,000 192 409 0
2020-02-22 14:28:58 GMT -24.755316 -49.693130 36,000 192 409 0
2020-02-22 14:28:51 GMT -24.740845 -49.689892 36,000 192 409 0
2020-02-22 14:28:47 GMT -24.734554 -49.688465 36,000 192 409 0
2020-02-22 14:28:40 GMT -24.721148 -49.685463 36,000 192 409 0
2020-02-22 14:28:36 GMT -24.715235 -49.684113 36,000 192 409 0
2020-02-22 14:28:29 GMT -24.700745 -49.680889 36,000 192 408 0
2020-02-22 14:28:23 GMT -24.682205 -49.676716 36,000 192 408 -64
2020-02-22 14:28:16 GMT -24.676254 -49.675396 36,000 192 407 0
2020-02-22 14:28:08 GMT -24.661839 -49.672092 36,000 192 407 0
2020-02-22 14:28:05 GMT -24.657417 -49.671108 36,000 192 407 0
2020-02-22 14:27:51 GMT -24.620407 -49.662762 36,000 192 407 0
2020-02-22 14:27:43 GMT -24.615986 -49.661777 36,000 192 407 0
2020-02-22 14:27:35 GMT -24.595270 -49.657166 36,000 192 407 0
2020-02-22 14:27:31 GMT -24.595270 -49.657166 36,000 192 407 0
2020-02-22 14:27:25 GMT -24.581957 -49.654160 36,000 192 407 0
2020-02-22 14:27:21 GMT -24.576742 -49.653023 36,000 192 407 0
2020-02-22 14:27:14 GMT -24.561985 -49.649704 36,000 192 407 0
2020-02-22 14:27:11 GMT -24.550507 -49.647114 36,000 192 407 0
2020-02-22 14:27:03 GMT -24.542759 -49.645405 36,000 192 407 0
2020-02-22 14:27:00 GMT -24.537592 -49.644211 36,000 192 407 0
2020-02-22 14:26:53 GMT -24.517620 -49.639702 36,000 192 407 0
2020-02-22 14:26:50 GMT -24.517620 -49.639702 36,000 192 407 0
2020-02-22 14:26:40 GMT -24.501755 -49.636078 36,000 192 407 0
2020-02-22 14:26:37 GMT -24.482147 -49.631672 36,000 192 407 0
2020-02-22 14:26:30 GMT -24.477356 -49.630535 36,000 192 407 0
2020-02-22 14:26:19 GMT -24.463303 -49.627380 36,000 192 407 -64
2020-02-22 14:26:16 GMT -24.457010 -49.625969 36,000 192 407 -64
2020-02-22 14:26:10 GMT -24.443695 -49.622963 36,000 192 407 0
2020-02-22 14:26:07 GMT -24.438171 -49.621735 36,000 192 407 0
2020-02-22 14:25:59 GMT -24.418900 -49.617413 36,000 192 408 -64
2020-02-22 14:25:50 GMT -24.408176 -49.614983 36,000 192 408 0
2020-02-22 14:25:47 GMT -24.403336 -49.613903 36,000 192 408 0
2020-02-22 14:25:44 GMT -24.397430 -49.612579 36,000 192 408 0
2020-02-22 14:25:40 GMT -24.387415 -49.610371 36,000 192 408 -64
2020-02-22 14:25:35 GMT -24.378523 -49.608349 36,000 192 408 0
2020-02-22 14:25:30 GMT -24.369232 -49.606274 36,000 192 408 0
2020-02-22 14:25:27 GMT -24.364059 -49.605103 36,000 192 408 64
2020-02-22 14:25:24 GMT -24.358505 -49.603844 36,000 192 408 0
2020-02-22 14:25:16 GMT -24.338442 -49.599281 36,000 192 409 -64
2020-02-22 14:25:12 GMT -24.330643 -49.597523 36,000 192 409 0
2020-02-22 14:25:09 GMT -24.330643 -49.597523 36,000 192 409 0
2020-02-22 14:25:02 GMT -24.318377 -49.594772 36,000 192 409 0
2020-02-22 14:24:59 GMT -24.314653 -49.593945 36,000 192 409 0
2020-02-22 14:24:55 GMT -24.304596 -49.591675 36,000 192 409 64
2020-02-22 14:24:52 GMT -24.299011 -49.590366 36,000 192 409 64
2020-02-22 14:24:48 GMT -24.291183 -49.588623 36,000 192 410 0
2020-02-22 14:24:44 GMT -24.283369 -49.586845 36,000 192 410 0
2020-02-22 14:24:40 GMT -24.278549 -49.585773 36,000 192 410 0
2020-02-22 14:24:35 GMT -24.269962 -49.583839 36,000 192 410 0
2020-02-22 14:24:32 GMT -24.260605 -49.581707 36,000 192 411 0
2020-02-22 14:24:25 GMT -24.249062 -49.579121 36,000 192 411 0
2020-02-22 14:24:21 GMT -24.243055 -49.577774 36,000 192 411 0
2020-02-22 14:24:18 GMT -24.238220 -49.576721 36,000 192 411 0
2020-02-22 14:24:12 GMT -24.224030 -49.573566 36,000 192 411 -64
2020-02-22 14:24:09 GMT -24.218384 -49.572281 36,000 192 411 -64
2020-02-22 14:24:05 GMT -24.210934 -49.570621 36,000 192 411 -64
2020-02-22 14:24:01 GMT -24.203440 -49.568966 36,000 192 411 0
2020-02-22 14:23:58 GMT -24.198578 -49.567921 36,000 192 411 0
2020-02-22 14:23:52 GMT -24.187363 -49.565430 36,000 192 412 0
2020-02-22 14:23:49 GMT -24.183981 -49.564663 36,000 192 412 0
2020-02-22 14:23:46 GMT -24.178391 -49.563396 36,000 192 412 0
2020-02-22 14:23:36 GMT -24.158157 -49.558918 36,000 192 413 0
2020-02-22 14:23:32 GMT -24.149532 -49.556995 36,000 192 413 0
2020-02-22 14:23:26 GMT -24.140121 -49.554901 36,000 192 413 0
2020-02-22 14:23:22 GMT -24.129980 -49.552643 36,000 192 413 -64
2020-02-22 14:23:17 GMT -24.123230 -49.551140 36,000 192 413 -64
2020-02-22 14:23:14 GMT -24.118713 -49.550102 36,000 192 413 0
2020-02-22 14:23:11 GMT -24.111219 -49.548443 36,000 192 413 0
2020-02-22 14:23:08 GMT -24.103678 -49.546783 36,000 192 413 0
2020-02-22 14:23:05 GMT -24.091667 -49.544090 36,000 192 413 0
2020-02-22 14:23:01 GMT -24.091667 -49.544090 36,000 192 413 0
2020-02-22 14:22:51 GMT -24.061981 -49.537457 36,000 192 414 0
2020-02-22 14:22:43 GMT -24.055939 -49.536083 36,000 192 415 0
2020-02-22 14:22:33 GMT -24.040100 -49.532574 36,000 192 415 0
2020-02-22 14:22:29 GMT -24.030684 -49.530514 36,000 192 415 0
2020-02-22 14:22:23 GMT -24.021606 -49.528492 36,000 192 415 0
2020-02-22 14:22:20 GMT -24.015198 -49.527081 36,000 192 415 0
2020-02-22 14:22:17 GMT -24.011444 -49.526215 36,000 192 415 0
2020-02-22 14:22:12 GMT -23.998981 -49.523464 36,000 192 415 0
2020-02-22 14:22:07 GMT -23.990295 -49.521534 36,000 192 415 0
2020-02-22 14:22:04 GMT -23.983521 -49.520061 36,000 192 415 0
2020-02-22 14:22:00 GMT -23.979383 -49.519112 36,000 192 415 0
2020-02-22 14:21:57 GMT -23.971436 -49.517365 36,000 192 416 0
2020-02-22 14:21:53 GMT -23.964254 -49.515797 36,000 192 416 0
2020-02-22 14:21:50 GMT -23.959740 -49.514759 36,000 192 416 0
2020-02-22 14:21:45 GMT -23.951019 -49.512836 36,000 192 416 0
2020-02-22 14:21:40 GMT -23.939302 -49.510250 36,000 192 416 0
2020-02-22 14:21:36 GMT -23.930603 -49.508312 36,000 192 416 0
2020-02-22 14:21:32 GMT -23.923004 -49.506634 36,000 192 416 0
2020-02-22 14:21:28 GMT -23.918865 -49.505741 36,000 192 416 0
2020-02-22 14:21:25 GMT -23.910534 -49.503876 36,000 192 416 0
2020-02-22 14:21:21 GMT -23.902990 -49.502216 36,000 192 416 0
2020-02-22 14:21:18 GMT -23.898056 -49.501087 36,000 192 416 0
2020-02-22 14:21:13 GMT -23.889725 -49.499256 36,000 192 416 0
2020-02-22 14:21:08 GMT -23.878738 -49.496826 36,000 192 416 0
2020-02-22 14:21:03 GMT -23.869659 -49.494808 36,000 192 416 0
2020-02-22 14:21:00 GMT -23.862488 -49.493206 36,000 192 416 0
2020-02-22 14:20:57 GMT -23.858688 -49.492390 36,000 192 416 0
2020-02-22 14:20:52 GMT -23.847336 -49.489849 36,000 192 417 0
2020-02-22 14:20:49 GMT -23.842381 -49.488743 36,000 192 417 -64
2020-02-22 14:20:45 GMT -23.836716 -49.487507 36,000 192 417 0
2020-02-22 14:20:42 GMT -23.830276 -49.486099 36,000 192 417 -64
2020-02-22 14:20:39 GMT -23.822689 -49.484390 36,000 192 417 -64
2020-02-22 14:20:36 GMT -23.817764 -49.483288 36,000 192 417 0
2020-02-22 14:20:31 GMT -23.809793 -49.481541 36,000 192 417 0
2020-02-22 14:20:27 GMT -23.801056 -49.479572 36,000 192 417 0
2020-02-22 14:20:21 GMT -23.787415 -49.476471 36,000 192 417 0
2020-02-22 14:20:17 GMT -23.780977 -49.475010 36,000 192 417 0
2020-02-22 14:20:11 GMT -23.769974 -49.472553 36,000 192 418 0
2020-02-22 14:20:04 GMT -23.757421 -49.469727 36,000 192 418 0
2020-02-22 14:19:59 GMT -23.748299 -49.467705 36,000 192 418 0
2020-02-22 14:19:55 GMT -23.739174 -49.465630 36,000 192 418 0
2020-02-22 14:19:52 GMT -23.736511 -49.465027 36,000 192 418 -64
2020-02-22 14:19:46 GMT -23.722824 -49.461975 36,000 192 418 -64
2020-02-22 14:19:42 GMT -23.716736 -49.460602 36,000 192 419 0
2020-02-22 14:19:35 GMT -23.703049 -49.457550 36,000 192 419 0
2020-02-22 14:19:31 GMT -23.694672 -49.455669 36,000 192 419 0
2020-02-22 14:19:26 GMT -23.687027 -49.453938 36,000 192 419 0
2020-02-22 14:19:23 GMT -23.681311 -49.452675 36,000 192 419 0
2020-02-22 14:19:20 GMT -23.675629 -49.451397 36,000 192 419 0
2020-02-22 14:19:16 GMT -23.667984 -49.449665 36,000 192 419 -64
2020-02-22 14:19:13 GMT -23.659988 -49.447906 36,000 192 419 0
2020-02-22 14:19:10 GMT -23.655428 -49.446873 36,000 192 419 0
2020-02-22 14:19:07 GMT -23.648582 -49.445316 36,000 192 419 0
2020-02-22 14:19:04 GMT -23.645874 -49.444733 36,000 192 419 0
2020-02-22 14:19:00 GMT -23.635208 -49.442341 36,000 192 419 0
2020-02-22 14:18:55 GMT -23.627609 -49.440613 36,000 192 419 64
2020-02-22 14:18:51 GMT -23.618835 -49.438633 36,000 192 419 0
2020-02-22 14:18:48 GMT -23.612738 -49.437286 36,000 192 419 0
2020-02-22 14:18:45 GMT -23.607788 -49.436138 36,000 192 419 0
2020-02-22 14:18:41 GMT -23.599005 -49.434174 36,000 192 419 0
2020-02-22 14:18:38 GMT -23.594442 -49.433140 36,000 192 419 0
2020-02-22 14:18:35 GMT -23.587601 -49.431583 36,000 192 419 0
2020-02-22 14:18:31 GMT -23.579966 -49.429874 36,000 192 419 0
2020-02-22 14:18:28 GMT -23.571587 -49.428009 36,000 192 419 0
2020-02-22 14:18:24 GMT -23.567768 -49.427128 36,000 192 419 0
2020-02-22 14:18:20 GMT -23.554035 -49.424068 36,000 192 420 0
2020-02-22 14:18:14 GMT -23.546768 -49.422455 36,000 192 420 0
2020-02-22 14:18:07 GMT -23.533413 -49.419453 36,000 192 420 0
2020-02-22 14:18:04 GMT -23.530746 -49.418850 36,000 192 420 0
2020-02-22 14:18:01 GMT -23.522369 -49.416954 36,000 192 420 0
2020-02-22 14:17:58 GMT -23.510509 -49.414318 36,000 192 420 0
2020-02-22 14:17:55 GMT -23.510509 -49.414318 36,000 192 420 0
2020-02-22 14:17:52 GMT -23.495985 -49.411060 36,000 192 420 0
2020-02-22 14:17:47 GMT -23.495985 -49.411060 36,000 192 420 0
2020-02-22 14:17:42 GMT -23.486071 -49.408825 36,000 192 420 0
2020-02-22 14:17:37 GMT -23.476898 -49.406788 36,000 192 420 0
2020-02-22 14:17:34 GMT -23.471924 -49.405666 36,000 192 420 0
2020-02-22 14:17:30 GMT -23.465057 -49.404118 36,000 192 420 0
2020-02-22 14:17:27 GMT -23.458191 -49.402573 36,000 192 421 0
2020-02-22 14:17:24 GMT -23.448595 -49.400433 36,000 192 421 0
2020-02-22 14:17:18 GMT -23.442856 -49.399174 36,000 192 421 0
2020-02-22 14:17:15 GMT -23.434814 -49.397381 36,000 192 421 0
2020-02-22 14:17:12 GMT -23.428717 -49.396008 36,000 192 421 0
2020-02-22 14:17:05 GMT -23.415730 -49.393108 36,000 192 421 0
2020-02-22 14:17:02 GMT -23.410721 -49.391983 36,000 192 421 0
2020-02-22 14:16:58 GMT -23.404633 -49.390587 36,000 192 421 0
2020-02-22 14:16:53 GMT -23.391243 -49.387615 36,000 192 421 0
2020-02-22 14:16:50 GMT -23.388519 -49.386990 36,000 192 421 0
2020-02-22 14:16:44 GMT -23.377462 -49.384510 36,000 192 421 -64
2020-02-22 14:16:40 GMT -23.368246 -49.382477 36,000 192 421 0
2020-02-22 14:16:33 GMT -23.356384 -49.379799 36,000 192 421 0
2020-02-22 14:16:29 GMT -23.347576 -49.377850 36,000 192 421 0
2020-02-22 14:16:22 GMT -23.333405 -49.374657 36,000 192 422 0
2020-02-22 14:16:18 GMT -23.324936 -49.372807 36,000 192 422 0
2020-02-22 14:16:12 GMT -23.316154 -49.370831 36,000 192 422 0
2020-02-22 14:16:08 GMT -23.306936 -49.368793 36,000 192 422 0
2020-02-22 14:16:00 GMT -23.291977 -49.365467 36,000 192 422 0
2020-02-22 14:15:56 GMT -23.282776 -49.363369 36,000 192 422 0
2020-02-22 14:15:45 GMT -23.252884 -49.356678 36,000 192 421 0
2020-02-22 14:15:37 GMT -23.247116 -49.355419 36,000 192 421 0
2020-02-22 14:15:34 GMT -23.240616 -49.353931 36,000 192 421 0
2020-02-22 14:15:29 GMT -23.231010 -49.351807 36,000 192 421 0
2020-02-22 14:15:26 GMT -23.225657 -49.350586 36,000 192 421 0
2020-02-22 14:15:23 GMT -23.220303 -49.349365 36,000 192 421 0
2020-02-22 14:15:17 GMT -23.210724 -49.347240 36,000 192 421 0
2020-02-22 14:15:14 GMT -23.204243 -49.345806 36,000 192 421 0
2020-02-22 14:15:10 GMT -23.197723 -49.344345 36,000 192 421 0
2020-02-22 14:15:07 GMT -23.190416 -49.342754 36,000 192 421 0
2020-02-22 14:15:03 GMT -23.182388 -49.341000 36,000 192 421 0
2020-02-22 14:14:58 GMT -23.172819 -49.338886 36,000 192 421 64
2020-02-22 14:14:54 GMT -23.165543 -49.337254 36,000 192 421 64
2020-02-22 14:14:51 GMT -23.158676 -49.335705 36,000 192 421 0
2020-02-22 14:14:44 GMT -23.145308 -49.332783 36,000 192 421 -64
2020-02-22 14:14:41 GMT -23.142609 -49.332157 36,000 192 420 0
2020-02-22 14:14:36 GMT -23.129248 -49.329174 36,000 192 420 0
2020-02-22 14:14:32 GMT -23.122742 -49.327763 36,000 192 420 -64
2020-02-22 14:14:28 GMT -23.115467 -49.326122 36,000 192 420 -64
2020-02-22 14:14:24 GMT -23.107834 -49.324444 36,000 192 420 0
2020-02-22 14:14:21 GMT -23.101318 -49.323021 36,000 192 420 0
2020-02-22 14:14:17 GMT -23.093674 -49.321274 36,000 192 420 0
2020-02-22 14:14:14 GMT -23.087955 -49.320019 36,000 192 419 0
2020-02-22 14:14:11 GMT -23.083393 -49.319000 36,000 192 419 0
2020-02-22 14:14:07 GMT -23.074631 -49.317028 36,000 192 419 0
2020-02-22 14:14:04 GMT -23.068914 -49.315746 36,000 192 419 0
2020-02-22 14:14:01 GMT -23.062408 -49.314281 36,000 192 419 0
2020-02-22 14:13:58 GMT -23.057463 -49.313202 36,000 192 419 0
2020-02-22 14:13:54 GMT -23.050232 -49.311584 36,000 192 418 64
2020-02-22 14:13:51 GMT -23.044144 -49.310184 36,000 192 418 0
2020-02-22 14:13:48 GMT -23.039215 -49.309082 36,000 192 418 0
2020-02-22 14:13:45 GMT -23.033115 -49.307758 36,000 192 418 -64
2020-02-22 14:13:42 GMT -23.024368 -49.305794 36,000 192 418 -64
2020-02-22 14:13:36 GMT -23.016403 -49.303997 36,025 192 417 0
2020-02-22 14:13:32 GMT -23.009216 -49.302395 36,000 192 416 64
2020-02-22 14:13:29 GMT -23.003906 -49.301247 36,000 192 415 0
2020-02-22 14:13:25 GMT -22.997503 -49.299824 36,000 192 413 0
2020-02-22 14:13:21 GMT -22.988068 -49.297703 36,000 192 413 0
2020-02-22 14:13:17 GMT -22.979828 -49.295853 36,000 192 412 0
2020-02-22 14:13:11 GMT -22.968967 -49.293468 36,000 192 411 0
2020-02-22 14:13:08 GMT -22.962616 -49.292061 36,000 192 411 0
2020-02-22 14:13:04 GMT -22.955887 -49.290562 36,000 192 411 0
2020-02-22 14:13:00 GMT -22.943207 -49.287712 36,000 192 411 0
2020-02-22 14:12:57 GMT -22.943207 -49.287712 36,000 192 411 0
2020-02-22 14:12:51 GMT -22.932724 -49.285416 36,000 192 411 0
2020-02-22 14:12:48 GMT -22.926773 -49.284069 36,000 192 411 0
2020-02-22 14:12:45 GMT -22.920412 -49.282684 36,000 192 411 0
2020-02-22 14:12:42 GMT -22.915199 -49.281513 36,000 192 410 0
2020-02-22 14:12:39 GMT -22.901413 -49.278427 36,000 192 410 0
2020-02-22 14:12:35 GMT -22.901413 -49.278427 36,000 192 410 0
2020-02-22 14:12:32 GMT -22.895416 -49.277126 36,000 192 410 0
2020-02-22 14:12:27 GMT -22.887955 -49.275478 36,000 192 410 0
2020-02-22 14:12:23 GMT -22.878656 -49.273376 36,000 192 410 0
2020-02-22 14:12:17 GMT -22.868181 -49.271088 36,000 192 410 0
2020-02-22 14:12:14 GMT -22.862223 -49.269714 36,000 192 410 -64
2020-02-22 14:12:11 GMT -22.858887 -49.268986 36,000 192 410 -64
2020-02-22 14:12:06 GMT -22.848816 -49.266712 36,000 192 409 0
2020-02-22 14:12:02 GMT -22.839878 -49.264729 36,000 192 409 0
2020-02-22 14:11:58 GMT -22.826517 -49.261730 36,000 192 409 0
2020-02-22 14:11:54 GMT -22.826517 -49.261730 36,000 192 409 0
2020-02-22 14:11:51 GMT -22.820206 -49.260300 36,000 192 409 0
2020-02-22 14:11:45 GMT -22.808304 -49.257603 36,000 192 409 0
2020-02-22 14:11:40 GMT -22.799749 -49.255676 36,000 192 408 0
2020-02-22 14:11:34 GMT -22.789370 -49.253338 36,000 192 408 0
2020-02-22 14:11:31 GMT -22.785278 -49.252407 36,000 192 408 0
2020-02-22 14:11:28 GMT -22.779686 -49.251202 36,000 192 408 0
2020-02-22 14:11:25 GMT -22.772284 -49.249523 36,000 192 408 0
2020-02-22 14:11:22 GMT -22.760412 -49.246826 36,000 192 408 0
2020-02-22 14:11:19 GMT -22.760412 -49.246826 36,000 192 408 0
2020-02-22 14:11:14 GMT -22.750776 -49.244690 36,000 192 408 0
2020-02-22 14:11:11 GMT -22.747053 -49.243824 36,000 192 408 0
2020-02-22 14:11:08 GMT -22.740396 -49.242352 36,000 192 408 0
2020-02-22 14:11:03 GMT -22.729660 -49.239925 36,000 192 408 0
2020-02-22 14:11:00 GMT -22.727081 -49.239349 36,000 192 408 0
2020-02-22 14:10:56 GMT -22.720001 -49.237778 36,000 192 408 0
2020-02-22 14:10:52 GMT -22.710388 -49.235630 36,000 192 408 0
2020-02-22 14:10:49 GMT -22.706680 -49.234779 36,000 192 408 0
2020-02-22 14:10:46 GMT -22.699997 -49.233334 36,000 192 408 0
2020-02-22 14:10:43 GMT -22.688141 -49.230736 36,000 192 408 0
2020-02-22 14:10:39 GMT -22.680344 -49.229023 36,000 192 408 0
2020-02-22 14:10:36 GMT -22.680344 -49.229023 36,000 192 408 0
2020-02-22 14:10:31 GMT -22.671844 -49.227139 36,000 192 407 0
2020-02-22 14:10:28 GMT -22.668137 -49.226341 36,000 192 407 0
2020-02-22 14:10:25 GMT -22.660721 -49.224743 36,000 192 407 0
2020-02-22 14:10:20 GMT -22.651062 -49.222645 36,000 192 407 0
2020-02-22 14:10:17 GMT -22.648502 -49.222107 36,000 192 407 0
2020-02-22 14:10:14 GMT -22.639565 -49.220226 36,000 192 407 0
2020-02-22 14:10:09 GMT -22.629593 -49.218052 36,000 192 407 0
2020-02-22 14:10:05 GMT -22.622910 -49.216652 36,000 192 407 0
2020-02-22 14:10:02 GMT -22.620291 -49.216106 36,000 192 407 0
2020-02-22 14:09:59 GMT -22.611401 -49.214222 36,000 192 406 -64
2020-02-22 14:09:56 GMT -22.608078 -49.213509 36,000 192 407 -64
2020-02-22 14:09:52 GMT -22.599529 -49.211628 36,000 192 406 0
2020-02-22 14:09:46 GMT -22.589539 -49.209511 36,000 192 407 -64
2020-02-22 14:09:41 GMT -22.581001 -49.207661 36,000 192 407 0
2020-02-22 14:09:37 GMT -22.571777 -49.205715 36,000 192 407 0
2020-02-22 14:09:33 GMT -22.563583 -49.204018 36,000 191 407 0
2020-02-22 14:09:30 GMT -22.558004 -49.202881 36,000 191 407 -64
2020-02-22 14:09:26 GMT -22.550602 -49.201305 36,000 191 407 0
2020-02-22 14:09:22 GMT -22.543533 -49.199875 36,000 192 407 0
2020-02-22 14:09:19 GMT -22.537987 -49.198711 36,000 192 407 0
2020-02-22 14:09:14 GMT -22.527969 -49.196579 36,000 192 407 64
2020-02-22 14:09:11 GMT -22.523136 -49.195557 36,000 192 408 0
2020-02-22 14:09:08 GMT -22.516068 -49.194080 36,000 192 408 0
2020-02-22 14:09:03 GMT -22.508286 -49.192455 36,000 192 408 0
2020-02-22 14:08:58 GMT -22.501583 -49.191082 36,000 191 408 0
2020-02-22 14:08:55 GMT -22.492310 -49.189137 36,000 192 408 -64
2020-02-22 14:08:52 GMT -22.490458 -49.188740 36,000 192 407 -64
2020-02-22 14:08:49 GMT -22.481520 -49.186909 36,000 192 407 -64
2020-02-22 14:08:45 GMT -22.477051 -49.185944 36,000 192 407 0
2020-02-22 14:08:42 GMT -22.471138 -49.184723 36,000 192 407 0
2020-02-22 14:08:39 GMT -22.457731 -49.181927 36,000 191 408 0
2020-02-22 14:08:36 GMT -22.457731 -49.181927 36,000 191 408 0
2020-02-22 14:08:31 GMT -22.450699 -49.180496 36,000 191 408 0
2020-02-22 14:08:28 GMT -22.442505 -49.178799 36,000 191 407 0
2020-02-22 14:08:25 GMT -22.436922 -49.177704 36,000 191 407 0
2020-02-22 14:08:21 GMT -22.430265 -49.176331 36,000 191 408 0
2020-02-22 14:08:18 GMT -22.423561 -49.174957 36,000 191 408 0
2020-02-22 14:08:15 GMT -22.421677 -49.174606 36,000 191 408 0
2020-02-22 14:08:12 GMT -22.408310 -49.171860 36,000 191 408 0
2020-02-22 14:08:06 GMT -22.401960 -49.170582 36,000 191 408 0
2020-02-22 14:08:03 GMT -22.396362 -49.169460 36,000 191 409 0
2020-02-22 14:07:59 GMT -22.390787 -49.168346 36,000 191 409 0
2020-02-22 14:07:55 GMT -22.381804 -49.166515 36,000 191 409 0
2020-02-22 14:07:49 GMT -22.365051 -49.162968 36,000 192 409 0
2020-02-22 14:07:46 GMT -22.365051 -49.162968 36,000 192 408 0
2020-02-22 14:07:39 GMT -22.353195 -49.160275 36,000 194 408 128
2020-02-22 14:07:35 GMT -22.341476 -49.157127 36,000 196 407 128
2020-02-22 14:07:29 GMT -22.333855 -49.154766 36,000 198 406 128
2020-02-22 14:07:22 GMT -22.322021 -49.150585 36,000 201 405 192
2020-02-22 14:07:18 GMT -22.314972 -49.147739 36,000 203 404 192
2020-02-22 14:07:12 GMT -22.303299 -49.142345 36,000 205 404 256
2020-02-22 14:07:06 GMT -22.296242 -49.138592 36,000 208 402 0
2020-02-22 14:07:03 GMT -22.288933 -49.134521 36,000 207 402 -256
2020-02-22 14:06:57 GMT -22.279266 -49.129311 36,000 204 403 -384
2020-02-22 14:06:54 GMT -22.274130 -49.126842 36,025 200 405 -384
2020-02-22 14:06:50 GMT -22.267456 -49.124069 36,025 197 407 -320
2020-02-22 14:06:46 GMT -22.260178 -49.121773 36,000 193 410 -192
2020-02-22 14:06:43 GMT -22.253134 -49.120026 36,000 192 412 -64
2020-02-22 14:06:39 GMT -22.247498 -49.118774 36,000 192 412 -64
2020-02-22 14:06:35 GMT -22.238888 -49.116871 36,000 192 412 0
2020-02-22 14:06:29 GMT -22.227264 -49.114330 36,000 192 412 0
2020-02-22 14:06:22 GMT -22.208117 -49.110210 36,000 192 413 0
2020-02-22 14:06:18 GMT -22.208117 -49.110210 36,000 192 413 0
2020-02-22 14:06:14 GMT -22.199133 -49.108227 36,000 192 413 0
2020-02-22 14:06:08 GMT -22.187866 -49.105785 36,000 192 413 0
2020-02-22 14:06:02 GMT -22.178837 -49.103851 36,000 192 414 0
2020-02-22 14:05:59 GMT -22.165289 -49.100903 36,000 192 414 0
2020-02-22 14:05:50 GMT -22.145691 -49.096680 36,000 192 414 0
2020-02-22 14:05:46 GMT -22.145691 -49.096680 36,000 192 414 0
2020-02-22 14:05:41 GMT -22.137405 -49.094898 36,000 192 414 0
2020-02-22 14:05:38 GMT -22.131353 -49.093628 36,000 192 415 0
2020-02-22 14:05:34 GMT -22.126465 -49.092606 36,000 192 415 0
2020-02-22 14:05:30 GMT -22.110964 -49.089306 36,000 192 415 0
2020-02-22 14:05:27 GMT -22.110964 -49.089306 36,000 192 415 0
2020-02-22 14:05:24 GMT -22.106003 -49.088310 36,000 192 416 0
2020-02-22 14:05:21 GMT -22.099558 -49.086914 36,000 192 416 0
2020-02-22 14:05:18 GMT -22.094650 -49.085865 36,000 192 416 0
2020-02-22 14:05:14 GMT -22.087051 -49.084267 36,000 192 417 0
2020-02-22 14:05:11 GMT -22.074966 -49.081673 36,000 192 417 0
2020-02-22 14:05:08 GMT -22.070787 -49.080761 36,000 192 417 0
2020-02-22 14:05:02 GMT -22.059769 -49.078377 36,000 192 416 0
2020-02-22 14:04:59 GMT -22.059769 -49.078377 36,000 192 416 0
2020-02-22 14:04:55 GMT -22.050304 -49.076233 36,000 193 416 0
2020-02-22 14:04:50 GMT -22.041641 -49.074181 36,000 193 417 0
2020-02-22 14:04:47 GMT -22.034866 -49.072533 36,000 194 416 0
2020-02-22 14:04:44 GMT -22.030334 -49.071434 36,000 194 416 0
2020-02-22 14:04:41 GMT -22.025070 -49.070133 36,000 194 416 0
2020-02-22 14:04:38 GMT -22.019760 -49.068836 36,000 194 416 0
2020-02-22 14:04:35 GMT -22.013390 -49.067230 36,000 194 417 0
2020-02-22 14:04:31 GMT -22.005848 -49.065399 36,000 193 417 0
2020-02-22 14:04:28 GMT -21.998657 -49.063644 36,000 193 417 0
2020-02-22 14:04:23 GMT -21.989973 -49.061481 36,000 194 417 -64
2020-02-22 14:04:20 GMT -21.983921 -49.060009 36,000 194 417 -64
2020-02-22 14:04:14 GMT -21.974487 -49.057652 36,000 194 417 -64
2020-02-22 14:04:11 GMT -21.967348 -49.055889 36,000 193 417 0
2020-02-22 14:04:05 GMT -21.956360 -49.053207 36,000 193 418 0
2020-02-22 14:04:02 GMT -21.950317 -49.051708 36,000 193 418 0
2020-02-22 14:03:59 GMT -21.944632 -49.050343 36,000 193 418 0
2020-02-22 14:03:53 GMT -21.933319 -49.047546 36,000 193 418 0
2020-02-22 14:03:50 GMT -21.929123 -49.046513 36,000 193 418 0
2020-02-22 14:03:47 GMT -21.923450 -49.045105 36,000 193 418 0
2020-02-22 14:03:44 GMT -21.917398 -49.043629 36,000 193 418 0
2020-02-22 14:03:40 GMT -21.908321 -49.041393 36,000 193 418 0
2020-02-22 14:03:33 GMT -21.895844 -49.038326 36,000 193 418 0
2020-02-22 14:03:29 GMT -21.889801 -49.036827 36,000 193 419 0
2020-02-22 14:03:26 GMT -21.881832 -49.034832 36,000 193 419 0
2020-02-22 14:03:23 GMT -21.875780 -49.033356 36,000 193 419 0
2020-02-22 14:03:19 GMT -21.868561 -49.031582 36,000 193 419 0
2020-02-22 14:03:16 GMT -21.862841 -49.030151 36,000 193 419 0
2020-02-22 14:03:13 GMT -21.859070 -49.029236 36,000 193 420 0
2020-02-22 14:03:10 GMT -21.854874 -49.028187 36,000 193 420 0
2020-02-22 14:03:06 GMT -21.845383 -49.025879 36,000 193 420 0
2020-02-22 14:03:03 GMT -21.840454 -49.024643 36,000 193 420 0
2020-02-22 14:03:00 GMT -21.835512 -49.023438 36,000 193 420 0
2020-02-22 14:02:57 GMT -21.828278 -49.021645 36,000 193 420 0
2020-02-22 14:02:54 GMT -21.822573 -49.020233 36,000 193 420 0
2020-02-22 14:02:51 GMT -21.815323 -49.018497 36,000 193 421 0
2020-02-22 14:02:47 GMT -21.808094 -49.016724 36,000 193 421 0
2020-02-22 14:02:43 GMT -21.800507 -49.014843 36,000 193 421 0
2020-02-22 14:02:40 GMT -21.794769 -49.013454 36,000 193 421 0
2020-02-22 14:02:36 GMT -21.787170 -49.011559 36,000 193 421 0
2020-02-22 14:02:31 GMT -21.777649 -49.009247 36,000 193 421 0
2020-02-22 14:02:28 GMT -21.773832 -49.008282 36,000 193 421 0
2020-02-22 14:02:24 GMT -21.766989 -49.006603 36,000 193 421 0
2020-02-22 14:02:19 GMT -21.754000 -49.003448 36,000 194 421 0
2020-02-22 14:02:15 GMT -21.746367 -49.001568 36,000 194 421 0
2020-02-22 14:02:11 GMT -21.740267 -49.000092 36,000 193 422 0
2020-02-22 14:02:08 GMT -21.726929 -48.996777 36,000 193 422 0
2020-02-22 14:02:04 GMT -21.726929 -48.996777 36,000 193 422 0
2020-02-22 14:01:59 GMT -21.716217 -48.994129 36,000 193 422 -64
2020-02-22 14:01:52 GMT -21.705912 -48.991596 36,000 193 422 -64
2020-02-22 14:01:48 GMT -21.695618 -48.989086 36,000 193 422 -64
2020-02-22 14:01:44 GMT -21.687195 -48.986988 36,000 194 423 64
2020-02-22 14:01:41 GMT -21.684498 -48.986309 36,000 194 423 64
2020-02-22 14:01:37 GMT -21.675751 -48.984142 36,000 192 425 -128
2020-02-22 14:01:32 GMT -21.658035 -48.979897 36,000 191 428 -128
2020-02-22 14:01:28 GMT -21.651400 -48.978577 36,000 190 430 -128
2020-02-22 14:01:24 GMT -21.651400 -48.978577 36,000 190 430 -128
2020-02-22 14:01:20 GMT -21.644323 -48.977306 36,000 189 431 0
2020-02-22 14:01:16 GMT -21.632034 -48.975304 36,000 189 431 0
2020-02-22 14:01:13 GMT -21.629240 -48.974865 36,000 189 431 0
2020-02-22 14:01:07 GMT -21.615372 -48.972607 36,000 189 431 0
2020-02-22 14:01:04 GMT -21.609055 -48.971558 36,000 189 432 0
2020-02-22 14:01:00 GMT -21.601913 -48.970409 36,000 189 432 0
2020-02-22 14:00:56 GMT -21.593580 -48.969067 36,000 189 432 -64
2020-02-22 14:00:52 GMT -21.586853 -48.968014 36,000 189 432 -64
2020-02-22 14:00:49 GMT -21.580873 -48.967030 36,000 189 431 -64
2020-02-22 14:00:42 GMT -21.565430 -48.964565 36,000 189 431 -64
2020-02-22 14:00:37 GMT -21.558714 -48.963470 36,025 189 431 0
2020-02-22 14:00:31 GMT -21.545214 -48.961334 36,000 189 431 0
2020-02-22 14:00:28 GMT -21.538513 -48.960220 36,000 189 431 64
2020-02-22 14:00:23 GMT -21.521896 -48.957577 36,000 189 431 0
2020-02-22 14:00:20 GMT -21.521896 -48.957577 36,000 189 431 0
2020-02-22 14:00:12 GMT -21.508392 -48.955429 36,000 189 431 0
2020-02-22 14:00:09 GMT -21.500896 -48.954212 36,000 189 431 0
2020-02-22 14:00:05 GMT -21.494564 -48.953197 36,000 189 431 0
2020-02-22 14:00:00 GMT -21.474380 -48.949986 36,000 189 430 0
2020-02-22 13:59:56 GMT -21.474380 -48.949986 36,000 189 430 0
2020-02-22 13:59:52 GMT -21.466866 -48.948772 36,000 189 430 0
2020-02-22 13:59:49 GMT -21.462524 -48.948036 36,000 189 430 0
2020-02-22 13:59:45 GMT -21.454605 -48.946789 36,000 189 430 0
2020-02-22 13:59:40 GMT -21.445129 -48.945290 36,000 189 430 0
2020-02-22 13:59:37 GMT -21.432495 -48.943241 36,000 189 430 0
2020-02-22 13:59:27 GMT -21.418304 -48.940945 36,000 189 430 0
2020-02-22 13:59:24 GMT -21.411163 -48.939796 36,000 189 430 0
2020-02-22 13:59:16 GMT -21.398575 -48.937801 36,000 189 430 0
2020-02-22 13:59:13 GMT -21.390656 -48.936550 36,000 189 430 0
2020-02-22 13:59:08 GMT -21.380402 -48.934902 36,000 189 430 0
2020-02-22 13:59:05 GMT -21.375641 -48.934155 36,000 189 430 0
2020-02-22 13:59:01 GMT -21.356304 -48.931072 36,000 189 430 0
2020-02-22 13:58:56 GMT -21.356304 -48.931072 36,000 189 430 0
2020-02-22 13:58:52 GMT -21.348391 -48.929798 36,000 189 430 0
2020-02-22 13:58:48 GMT -21.341721 -48.928711 36,000 189 430 0
2020-02-22 13:58:45 GMT -21.334192 -48.927563 36,000 189 429 -64
2020-02-22 13:58:40 GMT -21.325150 -48.926113 36,000 189 429 0
2020-02-22 13:58:35 GMT -21.314501 -48.924408 36,000 189 429 0
2020-02-22 13:58:32 GMT -21.312515 -48.924068 36,000 189 429 0
2020-02-22 13:58:29 GMT -21.306198 -48.923069 36,000 189 429 0
2020-02-22 13:58:26 GMT -21.292007 -48.920822 36,000 189 429 0
2020-02-22 13:58:18 GMT -21.281754 -48.919174 36,000 189 429 0
2020-02-22 13:58:15 GMT -21.275070 -48.918102 36,000 189 429 0
2020-02-22 13:58:12 GMT -21.271500 -48.917526 36,000 189 429 0
2020-02-22 13:58:08 GMT -21.262070 -48.916027 36,000 189 429 0
2020-02-22 13:58:04 GMT -21.251038 -48.914280 36,000 189 429 0
2020-02-22 13:58:01 GMT -21.251038 -48.914280 36,000 189 429 0
2020-02-22 13:57:58 GMT -21.242340 -48.912880 36,000 189 429 0
2020-02-22 13:57:55 GMT -21.237625 -48.912132 36,000 189 429 0
2020-02-22 13:57:51 GMT -21.230148 -48.910931 36,000 189 429 0
2020-02-22 13:57:47 GMT -21.221878 -48.909634 36,000 189 429 0
2020-02-22 13:57:43 GMT -21.212040 -48.908081 36,000 189 429 0
2020-02-22 13:57:37 GMT -21.201006 -48.906300 36,000 189 429 0
2020-02-22 13:57:32 GMT -21.191557 -48.904774 36,000 189 429 0
2020-02-22 13:57:29 GMT -21.187599 -48.904163 36,000 189 429 0
2020-02-22 13:57:26 GMT -21.179731 -48.902893 36,000 189 429 0
2020-02-22 13:57:22 GMT -21.172609 -48.901775 36,000 189 429 0
2020-02-22 13:57:18 GMT -21.164742 -48.900501 36,000 189 429 0
2020-02-22 13:57:15 GMT -21.159203 -48.899586 36,000 189 430 0
2020-02-22 13:57:09 GMT -21.145386 -48.897400 36,000 189 430 0
2020-02-22 13:57:04 GMT -21.136299 -48.895924 36,000 189 430 0
2020-02-22 13:57:00 GMT -21.130758 -48.895061 36,000 189 430 0
2020-02-22 13:56:57 GMT -21.115768 -48.892670 36,000 189 430 0
2020-02-22 13:56:54 GMT -21.115768 -48.892670 36,000 189 430 0
2020-02-22 13:56:49 GMT -21.105927 -48.891060 36,000 189 430 0
2020-02-22 13:56:43 GMT -21.095240 -48.889362 36,000 189 430 0
2020-02-22 13:56:38 GMT -21.085373 -48.887760 36,000 189 430 0
2020-02-22 13:56:35 GMT -21.080250 -48.886974 36,000 189 430 0
2020-02-22 13:56:32 GMT -21.073517 -48.885864 36,000 189 430 0
2020-02-22 13:56:28 GMT -21.064041 -48.884365 36,000 189 430 0
2020-02-22 13:56:25 GMT -21.059326 -48.883568 36,000 189 430 0
2020-02-22 13:56:21 GMT -21.047058 -48.881634 36,000 189 430 0
2020-02-22 13:56:15 GMT -21.038773 -48.880322 36,000 189 431 0
2020-02-22 13:56:10 GMT -21.030029 -48.878922 36,000 189 431 0
2020-02-22 13:56:07 GMT -21.025314 -48.878174 36,000 189 431 0
2020-02-22 13:56:04 GMT -21.018568 -48.877125 36,000 189 431 0
2020-02-22 13:56:00 GMT -21.010654 -48.875828 36,000 189 431 0
2020-02-22 13:55:57 GMT -21.004715 -48.874889 36,000 189 431 0
2020-02-22 13:55:53 GMT -20.995193 -48.873417 36,000 189 432 0
2020-02-22 13:55:50 GMT -20.975740 -48.870335 36,000 189 432 0
2020-02-22 13:55:43 GMT -20.975740 -48.870335 36,000 189 432 0
2020-02-22 13:55:39 GMT -20.962646 -48.868217 36,000 189 432 0
2020-02-22 13:55:35 GMT -20.962646 -48.868217 36,000 189 432 0
2020-02-22 13:55:32 GMT -20.955505 -48.867088 36,000 189 432 -64
2020-02-22 13:55:25 GMT -20.941616 -48.864891 36,000 189 432 0
2020-02-22 13:55:21 GMT -20.933258 -48.863560 36,000 189 432 0
2020-02-22 13:55:18 GMT -20.926117 -48.862381 36,000 189 432 0
2020-02-22 13:55:14 GMT -20.920532 -48.861500 36,000 189 432 0
2020-02-22 13:55:11 GMT -20.911406 -48.860046 36,000 189 432 0
2020-02-22 13:55:05 GMT -20.900278 -48.858299 36,000 189 432 0
2020-02-22 13:55:02 GMT -20.893948 -48.857250 36,000 189 432 0
2020-02-22 13:54:56 GMT -20.883614 -48.855652 36,000 189 432 0
2020-02-22 13:54:53 GMT -20.877640 -48.854679 36,000 189 432 0
2020-02-22 13:54:49 GMT -20.868896 -48.853256 36,000 189 432 0
2020-02-22 13:54:46 GMT -20.861755 -48.852131 36,000 189 432 0
2020-02-22 13:54:42 GMT -20.856171 -48.851250 36,000 189 432 0
2020-02-22 13:54:39 GMT -20.849030 -48.850071 36,000 189 433 0
2020-02-22 13:54:35 GMT -20.841482 -48.848862 36,000 189 433 0
2020-02-22 13:54:31 GMT -20.835897 -48.847961 36,000 189 433 0
2020-02-22 13:54:27 GMT -20.827560 -48.846588 36,000 189 433 0
2020-02-22 13:54:21 GMT -20.814438 -48.844467 36,000 189 433 -64
2020-02-22 13:54:17 GMT -20.805313 -48.843006 36,000 189 433 -64
2020-02-22 13:54:14 GMT -20.798126 -48.841831 36,000 189 433 -64
2020-02-22 13:54:10 GMT -20.792976 -48.840969 36,000 189 433 0
2020-02-22 13:54:06 GMT -20.785015 -48.839722 36,000 189 433 0
2020-02-22 13:54:03 GMT -20.776657 -48.838348 36,000 189 433 0
2020-02-22 13:54:00 GMT -20.772261 -48.837624 36,000 189 433 0
2020-02-22 13:53:56 GMT -20.764299 -48.836376 36,000 189 434 0
2020-02-22 13:53:52 GMT -20.757921 -48.835327 36,000 189 434 0
2020-02-22 13:53:49 GMT -20.751160 -48.834229 36,000 189 434 0
2020-02-22 13:53:46 GMT -20.742371 -48.832855 36,000 189 435 -64
2020-02-22 13:53:39 GMT -20.728821 -48.830696 36,000 189 434 0
2020-02-22 13:53:34 GMT -20.721239 -48.829483 36,000 189 434 -64
2020-02-22 13:53:31 GMT -20.713669 -48.828342 36,000 189 435 0
2020-02-22 13:53:28 GMT -20.707260 -48.827362 36,000 189 435 128
2020-02-22 13:53:23 GMT -20.699684 -48.826138 36,000 190 434 128
2020-02-22 13:53:17 GMT -20.685440 -48.823341 36,000 193 433 128
2020-02-22 13:53:14 GMT -20.679565 -48.822018 36,000 194 432 128
2020-02-22 13:53:09 GMT -20.671383 -48.819946 36,000 197 432 192
2020-02-22 13:53:06 GMT -20.664780 -48.818043 36,000 197 431 192
2020-02-22 13:53:02 GMT -20.656763 -48.815502 36,000 198 431 64
2020-02-22 13:52:56 GMT -20.646469 -48.812111 36,000 198 430 0
2020-02-22 13:52:53 GMT -20.638046 -48.809315 36,000 198 430 0
2020-02-22 13:52:48 GMT -20.629297 -48.806412 36,000 198 430 0
2020-02-22 13:52:45 GMT -20.625092 -48.804996 36,000 198 430 0
2020-02-22 13:52:42 GMT -20.617493 -48.802498 36,000 198 430 0
2020-02-22 13:52:37 GMT -20.609848 -48.799946 36,000 198 430 0
2020-02-22 13:52:34 GMT -20.602625 -48.797573 36,000 198 430 0
2020-02-22 13:52:30 GMT -20.596893 -48.795677 36,000 198 430 0
2020-02-22 13:52:27 GMT -20.589294 -48.793129 36,000 198 430 0
2020-02-22 13:52:24 GMT -20.577850 -48.789303 36,000 198 430 0
2020-02-22 13:52:21 GMT -20.577850 -48.789303 36,000 198 430 -64
2020-02-22 13:52:16 GMT -20.565289 -48.785141 36,000 198 430 0
2020-02-22 13:52:10 GMT -20.557297 -48.782486 36,000 198 430 0
2020-02-22 13:52:05 GMT -20.548920 -48.779690 36,000 198 430 0
2020-02-22 13:52:02 GMT -20.541687 -48.777298 36,000 198 430 0
2020-02-22 13:51:58 GMT -20.536333 -48.775501 36,000 198 430 0
2020-02-22 13:51:55 GMT -20.524927 -48.771755 36,000 198 430 0
2020-02-22 13:51:48 GMT -20.516144 -48.768848 36,000 198 430 0
2020-02-22 13:51:41 GMT -20.503607 -48.764664 36,000 198 429 0
2020-02-22 13:51:38 GMT -20.495974 -48.762169 36,000 198 429 0
2020-02-22 13:51:31 GMT -20.484568 -48.758373 36,000 198 429 0
2020-02-22 13:51:27 GMT -20.475443 -48.755379 36,000 198 429 0
2020-02-22 13:51:22 GMT -20.466318 -48.752331 36,000 198 429 0
2020-02-22 13:51:18 GMT -20.458731 -48.749832 36,000 198 429 0
2020-02-22 13:51:12 GMT -20.446533 -48.745838 36,000 198 428 0
2020-02-22 13:51:09 GMT -20.443909 -48.744915 36,000 198 428 0
2020-02-22 13:51:06 GMT -20.434799 -48.741924 36,000 198 428 0
2020-02-22 13:50:59 GMT -20.414694 -48.735252 36,000 198 428 0
2020-02-22 13:50:55 GMT -20.414694 -48.735252 36,000 198 428 0
2020-02-22 13:50:48 GMT -20.403288 -48.731457 36,000 198 428 0
2020-02-22 13:50:44 GMT -20.393829 -48.728336 36,000 198 428 0
2020-02-22 13:50:38 GMT -20.383942 -48.725101 36,000 198 428 0
2020-02-22 13:50:33 GMT -20.372982 -48.721470 36,000 198 427 0
2020-02-22 13:50:27 GMT -20.363525 -48.718334 36,000 198 427 0
2020-02-22 13:50:22 GMT -20.351753 -48.714478 36,000 198 427 0
2020-02-22 13:50:19 GMT -20.345701 -48.712479 36,000 198 427 0
2020-02-22 13:50:16 GMT -20.343842 -48.711857 36,000 198 427 0
2020-02-22 13:50:11 GMT -20.330978 -48.707592 36,000 198 426 0
2020-02-22 13:50:08 GMT -20.325668 -48.705826 36,000 198 426 0
2020-02-22 13:50:03 GMT -20.315491 -48.702492 36,000 198 426 0
2020-02-22 13:50:00 GMT -20.310974 -48.700993 36,000 198 426 0
2020-02-22 13:49:55 GMT -20.303387 -48.698498 36,000 198 426 0
2020-02-22 13:49:50 GMT -20.292818 -48.695004 36,000 198 426 0
2020-02-22 13:49:47 GMT -20.288681 -48.693611 36,000 198 426 0
2020-02-22 13:49:44 GMT -20.283371 -48.691898 36,000 198 426 0
2020-02-22 13:49:40 GMT -20.272064 -48.688122 36,000 198 426 0
2020-02-22 13:49:36 GMT -20.267532 -48.686649 36,000 198 426 0
2020-02-22 13:49:33 GMT -20.262606 -48.685013 36,000 198 426 0
2020-02-22 13:49:29 GMT -20.252039 -48.681568 36,000 198 426 0
2020-02-22 13:49:26 GMT -20.247894 -48.680176 36,000 198 426 0
2020-02-22 13:49:23 GMT -20.243362 -48.678654 36,000 198 426 0
2020-02-22 13:49:18 GMT -20.232056 -48.674927 36,000 198 426 0
2020-02-22 13:49:13 GMT -20.223364 -48.672031 36,000 198 426 0
2020-02-22 13:49:07 GMT -20.211685 -48.668159 36,000 198 426 0
2020-02-22 13:49:02 GMT -20.202621 -48.665169 36,000 198 426 0
2020-02-22 13:48:57 GMT -20.191269 -48.661438 36,000 198 426 0
2020-02-22 13:48:54 GMT -20.185610 -48.659595 36,000 198 426 -64
2020-02-22 13:48:51 GMT -20.182983 -48.658741 36,000 198 426 -64
2020-02-22 13:48:45 GMT -20.169388 -48.654228 36,000 198 426 0
2020-02-22 13:48:41 GMT -20.162985 -48.652157 36,000 198 426 0
2020-02-22 13:48:34 GMT -20.149750 -48.647804 36,000 198 426 0
2020-02-22 13:48:30 GMT -20.142242 -48.645302 36,000 198 425 0
2020-02-22 13:48:23 GMT -20.130157 -48.641380 36,000 198 425 0
2020-02-22 13:48:19 GMT -20.110611 -48.634953 36,000 198 423 0
2020-02-22 13:48:14 GMT -20.110611 -48.634953 36,000 198 423 0
2020-02-22 13:48:09 GMT -20.102699 -48.632381 36,000 198 423 0
2020-02-22 13:48:03 GMT -20.079803 -48.624851 36,000 198 422 0
2020-02-22 13:47:57 GMT -20.079803 -48.624851 36,000 198 423 0
2020-02-22 13:47:51 GMT -20.069647 -48.621544 36,000 198 423 0
2020-02-22 13:47:46 GMT -20.057281 -48.617493 36,000 198 422 0
2020-02-22 13:47:42 GMT -20.050142 -48.615150 36,000 198 422 0
2020-02-22 13:47:37 GMT -20.042646 -48.612705 36,000 198 422 0
2020-02-22 13:47:31 GMT -20.029146 -48.608261 36,000 198 422 0
2020-02-22 13:47:24 GMT -20.017136 -48.604317 36,000 198 422 0
2020-02-22 13:47:20 GMT -20.009642 -48.601868 36,000 198 422 0
2020-02-22 13:47:15 GMT -20.002148 -48.599422 36,000 198 422 0
2020-02-22 13:47:09 GMT -19.989391 -48.595226 36,000 198 423 0
2020-02-22 13:47:05 GMT -19.983032 -48.593117 36,000 198 423 0
2020-02-22 13:47:02 GMT -19.975891 -48.590782 36,000 198 423 0
2020-02-22 13:46:59 GMT -19.969528 -48.588654 36,000 198 423 0
2020-02-22 13:46:54 GMT -19.962753 -48.586449 36,000 198 424 0
2020-02-22 13:46:48 GMT -19.949249 -48.581985 36,000 198 424 0
2020-02-22 13:46:43 GMT -19.942886 -48.579845 36,000 198 424 0
2020-02-22 13:46:37 GMT -19.928970 -48.575264 36,000 198 424 0
2020-02-22 13:46:33 GMT -19.922974 -48.573254 36,000 198 424 0
2020-02-22 13:46:26 GMT -19.909424 -48.568790 36,000 198 424 0
2020-02-22 13:46:22 GMT -19.902649 -48.566536 36,000 198 425 0
2020-02-22 13:46:16 GMT -19.888367 -48.561825 36,000 198 424 0
2020-02-22 13:46:11 GMT -19.882694 -48.560020 36,000 198 424 0
2020-02-22 13:46:05 GMT -19.867996 -48.555206 36,000 198 424 0
2020-02-22 13:46:01 GMT -19.862732 -48.553490 36,000 198 424 0
2020-02-22 13:45:56 GMT -19.852203 -48.550056 36,000 198 424 64
2020-02-22 13:45:53 GMT -19.847672 -48.548584 36,000 198 425 64
2020-02-22 13:45:50 GMT -19.843140 -48.547112 36,000 198 425 64
2020-02-22 13:45:40 GMT -19.822815 -48.540394 36,000 197 424 -192
2020-02-22 13:45:33 GMT -19.807232 -48.535702 36,000 194 426 -192
2020-02-22 13:45:22 GMT -19.781982 -48.530239 36,000 189 428 -192
2020-02-22 13:45:08 GMT -19.761053 -48.527611 36,000 185 430 -192
2020-02-22 13:44:57 GMT -19.739452 -48.526661 36,000 179 433 -128
2020-02-22 13:44:50 GMT -19.721762 -48.526962 36,000 178 434 64
2020-02-22 13:44:46 GMT -19.717712 -48.527061 36,000 178 434 64
2020-02-22 13:44:39 GMT -19.700409 -48.527447 36,000 178 434 0
2020-02-22 13:44:25 GMT -19.675861 -48.527962 36,000 178 434 0
2020-02-22 13:44:15 GMT -19.654495 -48.528427 36,000 178 435 0
2020-02-22 13:44:07 GMT -19.635548 -48.528858 36,000 178 435 0
2020-02-22 13:44:04 GMT -19.632336 -48.528908 36,000 178 435 0
2020-02-22 13:43:56 GMT -19.614166 -48.529308 36,000 178 435 0
2020-02-22 13:43:53 GMT -19.611341 -48.529358 36,000 178 435 0
2020-02-22 13:43:43 GMT -19.589172 -48.529846 36,000 178 435 0
2020-02-22 13:43:35 GMT -19.571457 -48.530239 36,000 178 435 64
2020-02-22 13:43:24 GMT -19.549286 -48.530704 36,000 178 435 0
2020-02-22 13:43:21 GMT -19.546463 -48.530781 36,000 178 435 0
2020-02-22 13:43:11 GMT -19.525080 -48.531204 36,000 178 435 0
2020-02-22 13:43:00 GMT -19.504084 -48.531704 36,000 178 436 0
2020-02-22 13:42:50 GMT -19.482651 -48.532154 36,000 178 436 0
2020-02-22 13:42:39 GMT -19.461594 -48.532597 36,000 178 436 -64
2020-02-22 13:42:28 GMT -19.438934 -48.533134 36,000 178 436 0
2020-02-22 13:42:18 GMT -19.417923 -48.533577 36,000 178 436 0
2020-02-22 13:42:07 GMT -19.396042 -48.534065 36,000 178 436 0
2020-02-22 13:41:56 GMT -19.374985 -48.534557 36,000 178 436 0
2020-02-22 13:41:46 GMT -19.353580 -48.535103 36,000 178 436 0
2020-02-22 13:41:35 GMT -19.331314 -48.535587 36,000 178 436 0
2020-02-22 13:41:25 GMT -19.310705 -48.536098 36,000 178 435 0
2020-02-22 13:41:14 GMT -19.288467 -48.536617 36,000 178 435 0
2020-02-22 13:41:03 GMT -19.265900 -48.537106 36,000 178 435 0
2020-02-22 13:40:52 GMT -19.244934 -48.537548 36,000 178 434 0
2020-02-22 13:40:41 GMT -19.222769 -48.538048 36,000 178 434 0
2020-02-22 13:40:34 GMT -19.206253 -48.538429 36,000 178 434 0
2020-02-22 13:40:31 GMT -19.201820 -48.538498 36,000 178 434 0
2020-02-22 13:40:20 GMT -19.180527 -48.539021 36,000 178 433 0
2020-02-22 13:40:10 GMT -19.159225 -48.539494 36,000 178 433 0
2020-02-22 13:40:02 GMT -19.141535 -48.539944 36,000 178 433 0
2020-02-22 13:39:59 GMT -19.138323 -48.539993 36,000 178 433 0
2020-02-22 13:39:48 GMT -19.115839 -48.540543 36,000 178 432 0
2020-02-22 13:39:38 GMT -19.095383 -48.541031 36,000 178 432 0
2020-02-22 13:39:27 GMT -19.073776 -48.541519 36,000 178 432 0
2020-02-22 13:39:18 GMT -19.044937 -48.542110 36,000 178 431 0
2020-02-22 13:39:08 GMT -19.027761 -48.542492 36,000 178 431 0
2020-02-22 13:38:56 GMT -19.009781 -48.542847 36,000 178 430 0
2020-02-22 13:38:45 GMT -18.989044 -48.543285 36,000 178 430 0
2020-02-22 13:38:34 GMT -18.968307 -48.543777 36,000 178 430 0
2020-02-22 13:38:23 GMT -18.947132 -48.544239 36,000 178 430 0
2020-02-22 13:38:13 GMT -18.925579 -48.544689 36,000 178 430 0
2020-02-22 13:38:07 GMT -18.910812 -48.545006 36,000 178 430 0
2020-02-22 13:38:01 GMT -18.899643 -48.545250 36,000 178 430 0
2020-02-22 13:37:50 GMT -18.876932 -48.545689 36,000 178 430 0
2020-02-22 13:37:41 GMT -18.862198 -48.545986 36,000 178 430 0
2020-02-22 13:37:30 GMT -18.840248 -48.546436 36,000 178 429 0
2020-02-22 13:37:20 GMT -18.819946 -48.546818 36,000 178 429 0
2020-02-22 13:37:09 GMT -18.798073 -48.547237 36,000 179 429 0
2020-02-22 13:36:58 GMT -18.776962 -48.547604 36,000 179 429 0
2020-02-22 13:36:48 GMT -18.755104 -48.547935 36,000 179 429 0
2020-02-22 13:36:37 GMT -18.734802 -48.548290 36,000 179 429 0
2020-02-22 13:36:26 GMT -18.711300 -48.548683 36,000 178 429 0
2020-02-22 13:36:14 GMT -18.689838 -48.549084 36,000 178 429 0
2020-02-22 13:36:04 GMT -18.667923 -48.549564 36,000 178 429 64
2020-02-22 13:35:54 GMT -18.647615 -48.550083 36,000 178 429 0
2020-02-22 13:35:43 GMT -18.626108 -48.550732 36,000 178 430 0
2020-02-22 13:35:32 GMT -18.604202 -48.551479 36,000 177 429 0
2020-02-22 13:35:20 GMT -18.581863 -48.552361 36,000 177 429 0
2020-02-22 13:35:12 GMT -18.565155 -48.553047 36,000 177 430 0
2020-02-22 13:35:09 GMT -18.560349 -48.553242 36,000 178 430 64
2020-02-22 13:35:00 GMT -18.539244 -48.553928 36,000 178 430 64
2020-02-22 13:34:49 GMT -18.517319 -48.554272 36,000 179 430 0
2020-02-22 13:34:37 GMT -18.490952 -48.554569 36,000 179 431 0
2020-02-22 13:34:29 GMT -18.481007 -48.554626 36,000 179 431 0
2020-02-22 13:34:25 GMT -18.472206 -48.554726 36,000 193 431 320
2020-02-22 13:34:19 GMT -18.459406 -48.554527 36,000 184 430 256
2020-02-22 13:34:15 GMT -18.452236 -48.554077 36,000 188 430 256
2020-02-22 13:34:06 GMT -18.431351 -48.550743 36,000 195 431 192
2020-02-22 13:33:57 GMT -18.417044 -48.546936 36,000 196 430 0
2020-02-22 13:33:47 GMT -18.397024 -48.541191 36,000 196 430 0
2020-02-22 13:33:36 GMT -18.376217 -48.535202 36,000 196 431 0
2020-02-22 13:33:26 GMT -18.356552 -48.529602 36,000 196 431 0
2020-02-22 13:33:18 GMT -18.341125 -48.525188 36,000 196 430 0
2020-02-22 13:33:15 GMT -18.335344 -48.523563 36,000 196 431 0
2020-02-22 13:33:10 GMT -18.323364 -48.520187 36,000 196 430 0
2020-02-22 13:33:04 GMT -18.314896 -48.517784 36,000 196 430 0
2020-02-22 13:33:01 GMT -18.306381 -48.515381 36,000 196 430 0
2020-02-22 13:32:54 GMT -18.294800 -48.512093 36,000 196 430 0
2020-02-22 13:32:49 GMT -18.282833 -48.508736 36,000 196 431 0
2020-02-22 13:32:43 GMT -18.274315 -48.506336 36,000 196 431 0
2020-02-22 13:32:37 GMT -18.261566 -48.502728 36,000 196 431 0
2020-02-22 13:32:32 GMT -18.253830 -48.500568 36,000 196 431 0
2020-02-22 13:32:22 GMT -18.232956 -48.494682 36,000 196 432 0
2020-02-22 13:32:11 GMT -18.212082 -48.488747 36,000 196 431 0
2020-02-22 13:32:05 GMT -18.199318 -48.485165 36,000 196 431 64
2020-02-22 13:32:00 GMT -18.190430 -48.482666 36,000 196 432 0
2020-02-22 13:31:54 GMT -18.177671 -48.479038 36,000 196 432 0
2020-02-22 13:31:50 GMT -18.171480 -48.477322 36,000 196 432 0
2020-02-22 13:31:43 GMT -18.155188 -48.472710 36,000 196 432 0
2020-02-22 13:31:39 GMT -18.150578 -48.471386 36,000 196 432 0
2020-02-22 13:31:34 GMT -18.138565 -48.467968 36,000 196 432 0
2020-02-22 13:31:28 GMT -18.129677 -48.465450 36,000 196 432 0
2020-02-22 13:31:23 GMT -18.117292 -48.461922 36,000 196 432 0
2020-02-22 13:31:16 GMT -18.104507 -48.458282 36,000 196 432 0
2020-02-22 13:31:12 GMT -18.095215 -48.455635 36,000 196 432 0
2020-02-22 13:31:07 GMT -18.089035 -48.453850 36,000 196 432 0
2020-02-22 13:31:02 GMT -18.076281 -48.450249 36,000 196 432 -128
2020-02-22 13:30:57 GMT -18.068161 -48.447926 36,025 196 431 128
2020-02-22 13:30:53 GMT -18.061981 -48.446190 36,000 196 430 512
2020-02-22 13:30:50 GMT -18.052689 -48.443588 35,975 196 431 832
2020-02-22 13:30:46 GMT -18.048443 -48.442348 35,925 196 431 832
2020-02-22 13:30:43 GMT -18.041153 -48.440311 35,900 196 431 896
2020-02-22 13:30:40 GMT -18.034571 -48.438427 35,850 196 431 832
2020-02-22 13:30:33 GMT -18.020325 -48.434383 35,750 196 430 896
2020-02-22 13:30:25 GMT -18.006779 -48.430580 35,650 196 430 960
2020-02-22 13:30:22 GMT -17.990982 -48.426144 35,475 196 431 960
2020-02-22 13:30:18 GMT -17.985970 -48.424694 35,475 196 431 960
2020-02-22 13:30:14 GMT -17.985970 -48.424694 35,475 196 431 960
2020-02-22 13:30:08 GMT -17.972443 -48.420891 35,375 196 431 960
2020-02-22 13:30:04 GMT -17.966263 -48.419109 35,325 196 431 960
2020-02-22 13:30:00 GMT -17.958178 -48.416798 35,250 196 431 1024
2020-02-22 13:29:57 GMT -17.950836 -48.414722 35,200 196 431 1024
2020-02-22 13:29:53 GMT -17.945049 -48.413071 35,150 196 431 1024
2020-02-22 13:29:46 GMT -17.924938 -48.407379 34,975 196 432 1024
2020-02-22 13:29:36 GMT -17.909485 -48.402966 34,850 196 432 1088
2020-02-22 13:29:32 GMT -17.904465 -48.401520 34,800 196 432 1152
2020-02-22 13:29:28 GMT -17.894773 -48.398796 34,725 196 432 1152
2020-02-22 13:29:24 GMT -17.886253 -48.396393 34,625 196 433 1152
2020-02-22 13:29:21 GMT -17.883545 -48.395596 34,600 196 433 1152
2020-02-22 13:29:17 GMT -17.874252 -48.392944 34,525 196 433 1152
2020-02-22 13:29:13 GMT -17.866890 -48.390854 34,450 196 433 1216
2020-02-22 13:29:10 GMT -17.862625 -48.389668 34,400 196 433 1280
2020-02-22 13:29:06 GMT -17.852509 -48.386776 34,300 196 434 1280
2020-02-22 13:29:03 GMT -17.846685 -48.385113 34,250 196 434 1280
2020-02-22 13:28:59 GMT -17.842030 -48.383789 34,200 196 435 1280
2020-02-22 13:28:55 GMT -17.831497 -48.380802 34,075 196 435 1344
2020-02-22 13:28:52 GMT -17.825272 -48.379021 34,025 196 436 1344
2020-02-22 13:28:49 GMT -17.821733 -48.378002 33,975 196 436 1344
2020-02-22 13:28:44 GMT -17.810793 -48.374912 33,850 196 437 1408
2020-02-22 13:28:38 GMT -17.800232 -48.371937 33,750 196 437 1408
2020-02-22 13:28:34 GMT -17.789246 -48.368801 33,625 196 438 1536
2020-02-22 13:28:28 GMT -17.780209 -48.366280 33,500 196 439 1536
2020-02-22 13:28:23 GMT -17.768005 -48.362782 33,350 196 440 1536
2020-02-22 13:28:20 GMT -17.762512 -48.361191 33,300 196 441 1536
2020-02-22 13:28:17 GMT -17.758530 -48.360081 33,050 196 443 1600
2020-02-22 13:28:12 GMT -17.746674 -48.356709 33,100 196 442 1600
2020-02-22 13:28:09 GMT -17.740311 -48.354927 33,025 196 443 1600
2020-02-22 13:28:00 GMT -17.723228 -48.350094 32,800 196 445 1728
2020-02-22 13:27:56 GMT -17.716415 -48.348179 32,750 196 445 1728
2020-02-22 13:27:50 GMT -17.702042 -48.344131 32,500 196 447 1792
2020-02-22 13:27:45 GMT -17.694809 -48.342110 32,425 195 448 1728
2020-02-22 13:27:39 GMT -17.673019 -48.335991 32,150 196 451 1600
2020-02-22 13:27:34 GMT -17.673019 -48.335991 32,125 196 451 1600
2020-02-22 13:27:27 GMT -17.655634 -48.331116 31,925 196 452 1664
2020-02-22 13:27:24 GMT -17.651585 -48.329987 31,875 196 453 1664
2020-02-22 13:27:16 GMT -17.632462 -48.324615 31,650 196 454 1408
2020-02-22 13:27:04 GMT -17.609665 -48.318207 31,400 196 454 1280
2020-02-22 13:26:56 GMT -17.593323 -48.313629 31,250 196 455 1280
2020-02-22 13:26:53 GMT -17.587601 -48.312042 31,200 196 455 1280
2020-02-22 13:26:45 GMT -17.571304 -48.307510 31,050 196 455 1280
2020-02-22 13:26:41 GMT -17.565184 -48.305756 31,000 196 455 1408
2020-02-22 13:26:34 GMT -17.549286 -48.301296 30,825 196 455 1280
2020-02-22 13:26:30 GMT -17.543564 -48.299706 30,275 196 456 1408
2020-02-22 13:26:21 GMT -17.521500 -48.293488 30,275 196 456 1408
2020-02-22 13:26:12 GMT -17.505157 -48.288914 30,350 196 456 1472
2020-02-22 13:26:08 GMT -17.491676 -48.285107 30,200 196 457 1408
2020-02-22 13:26:02 GMT -17.482647 -48.282558 30,100 196 457 1472
2020-02-22 13:25:59 GMT -17.477325 -48.281055 30,050 196 458 1536
2020-02-22 13:25:51 GMT -17.451096 -48.273636 29,800 196 458 1472
2020-02-22 13:25:46 GMT -17.451096 -48.273636 29,750 196 458 1472
2020-02-22 13:25:40 GMT -17.438330 -48.270050 29,600 196 458 1472
2020-02-22 13:25:36 GMT -17.433014 -48.268578 29,475 196 458 1472
2020-02-22 13:25:29 GMT -17.415710 -48.263710 29,350 196 458 1408
2020-02-22 13:25:24 GMT -17.403788 -48.260342 29,250 196 459 1216
2020-02-22 13:25:16 GMT -17.388145 -48.255924 29,125 196 458 832
2020-02-22 13:25:13 GMT -17.382420 -48.254307 29,075 196 458 1216
2020-02-22 13:25:05 GMT -17.354919 -48.246555 28,900 196 458 896
2020-02-22 13:24:56 GMT -17.341827 -48.242847 28,750 196 455 896
2020-02-22 13:24:53 GMT -17.326309 -48.238461 28,750 196 455 896
2020-02-22 13:24:45 GMT -17.326309 -48.238461 28,650 196 453 1024
2020-02-22 13:24:41 GMT -17.316130 -48.235622 28,575 196 453 960
2020-02-22 13:24:34 GMT -17.303980 -48.232189 28,500 196 452 960
2020-02-22 13:24:27 GMT -17.286942 -48.227383 28,425 196 451 1024
2020-02-22 13:24:24 GMT -17.282501 -48.226128 28,325 196 450 896
2020-02-22 13:24:17 GMT -17.268814 -48.222271 28,275 196 449 896
2020-02-22 13:24:13 GMT -17.261536 -48.220245 28,175 196 448 1152
2020-02-22 13:24:08 GMT -17.249094 -48.216785 28,125 196 447 1216
2020-02-22 13:24:01 GMT -17.239456 -48.214039 27,975 196 447 1216
2020-02-22 13:23:56 GMT -17.227066 -48.210564 27,875 196 446 1280
2020-02-22 13:23:51 GMT -17.217857 -48.207958 27,775 196 446 1408
2020-02-22 13:23:41 GMT -17.195892 -48.201794 27,550 196 445 1408
2020-02-22 13:23:36 GMT -17.186325 -48.199093 27,425 196 445 1536
2020-02-22 13:23:30 GMT -17.173912 -48.195599 27,300 196 445 1472
2020-02-22 13:23:26 GMT -17.169117 -48.194225 27,225 196 445 1472
2020-02-22 13:23:19 GMT -17.152771 -48.189648 27,050 196 445 1472
2020-02-22 13:23:15 GMT -17.143982 -48.187191 26,950 196 445 1472
2020-02-22 13:23:06 GMT -17.126450 -48.182228 26,700 196 445 1664
2020-02-22 13:23:00 GMT -17.116058 -48.179337 26,600 196 445 1536
2020-02-22 13:22:55 GMT -17.104889 -48.176205 26,450 196 445 1664
2020-02-22 13:22:45 GMT -17.077316 -48.168476 26,200 196 446 1344
2020-02-22 13:22:42 GMT -17.077316 -48.168476 26,125 196 445 1408
2020-02-22 13:22:35 GMT -17.066097 -48.165337 26,000 196 446 2048
2020-02-22 13:22:32 GMT -17.056915 -48.162762 25,850 196 446 1856
2020-02-22 13:22:24 GMT -17.043705 -48.159061 25,675 196 447 1856
2020-02-22 13:22:21 GMT -17.038910 -48.157738 25,525 196 447 1728
2020-02-22 13:22:14 GMT -17.021667 -48.152882 25,375 196 447 1856
2020-02-22 13:22:11 GMT -17.017263 -48.151653 25,300 196 447 1856
2020-02-22 13:22:03 GMT -17.000793 -48.147053 25,075 195 448 1536
2020-02-22 13:21:57 GMT -16.988356 -48.143562 25,025 196 447 1472
2020-02-22 13:21:52 GMT -16.977539 -48.140549 24,825 196 446 1344
2020-02-22 13:21:46 GMT -16.967499 -48.137726 24,725 196 446 1408
2020-02-22 13:21:41 GMT -16.956711 -48.134716 24,600 195 445 1600
2020-02-22 13:21:38 GMT -16.949158 -48.132626 24,500 195 445 1600
2020-02-22 13:21:30 GMT -16.935564 -48.128845 24,325 196 444 1408
2020-02-22 13:21:27 GMT -16.927231 -48.126526 24,250 196 443 1344
2020-02-22 13:21:19 GMT -16.913727 -48.122719 24,100 196 442 1536
2020-02-22 13:21:15 GMT -16.904984 -48.120312 24,000 196 441 1536
2020-02-22 13:21:09 GMT -16.892349 -48.116791 23,850 196 440 1344
2020-02-22 13:21:04 GMT -16.882095 -48.113899 23,750 196 440 1280
2020-02-22 13:20:58 GMT -16.871462 -48.110947 23,575 196 438 1536
2020-02-22 13:20:54 GMT -16.862411 -48.108456 23,500 196 438 1472
2020-02-22 13:20:47 GMT -16.849869 -48.104939 23,375 196 435 1280
2020-02-22 13:20:44 GMT -16.840485 -48.102337 23,275 195 434 1280
2020-02-22 13:20:36 GMT -16.829193 -48.099174 23,150 195 432 1344
2020-02-22 13:20:30 GMT -16.817554 -48.095936 23,000 196 430 1408
2020-02-22 13:20:25 GMT -16.807892 -48.093231 22,900 196 429 1280
2020-02-22 13:20:19 GMT -16.794800 -48.089565 22,800 194 427 1216
2020-02-22 13:20:14 GMT -16.787064 -48.087543 22,675 193 426 1216
2020-02-22 13:20:09 GMT -16.776260 -48.085133 22,575 190 424 1088
2020-02-22 13:20:04 GMT -16.765741 -48.083138 22,500 189 423 1152
2020-02-22 13:19:58 GMT -16.753311 -48.081371 22,375 187 420 1216
2020-02-22 13:19:52 GMT -16.742418 -48.080048 22,250 187 418 1408
2020-02-22 13:19:47 GMT -16.730827 -48.078625 22,125 187 417 1728
2020-02-22 13:19:42 GMT -16.723146 -48.077690 22,025 187 417 1792
2020-02-22 13:19:34 GMT -16.706993 -48.075680 21,775 187 416 1856
2020-02-22 13:19:31 GMT -16.702385 -48.075142 21,700 187 415 1856
2020-02-22 13:19:24 GMT -16.688559 -48.073425 21,500 187 416 2112
2020-02-22 13:19:20 GMT -16.682053 -48.072605 21,400 187 416 2112
2020-02-22 13:19:08 GMT -16.661362 -48.070053 21,050 187 415 1856
2020-02-22 13:18:58 GMT -16.640329 -48.067394 20,725 187 413 2112
2020-02-22 13:18:50 GMT -16.622780 -48.065235 20,425 187 413 1792
2020-02-22 13:18:47 GMT -16.618963 -48.064793 20,375 187 412 1792
2020-02-22 13:18:37 GMT -16.599564 -48.062389 20,075 187 411 1920
2020-02-22 13:18:26 GMT -16.578695 -48.059891 19,775 187 408 1984
2020-02-22 13:18:15 GMT -16.558352 -48.057484 19,425 187 407 1984
2020-02-22 13:18:08 GMT -16.541428 -48.055500 19,175 187 405 1856
2020-02-22 13:18:03 GMT -16.537674 -48.055065 19,125 187 405 1920
2020-02-22 13:17:56 GMT -16.522751 -48.053333 18,800 187 403 1856
2020-02-22 13:17:52 GMT -16.516409 -48.052582 18,800 187 403 1856
2020-02-22 13:17:46 GMT -16.501144 -48.050732 18,550 187 400 1792
2020-02-22 13:17:40 GMT -16.494902 -48.049980 18,475 187 399 1984
2020-02-22 13:17:32 GMT -16.477211 -48.047825 18,125 187 398 2240
2020-02-22 13:17:21 GMT -16.457426 -48.045422 17,775 187 395 2176
2020-02-22 13:17:17 GMT -16.448675 -48.044342 17,600 187 395 2496
2020-02-22 13:17:06 GMT -16.421629 -48.041054 17,275 187 395 2560
2020-02-22 13:16:58 GMT -16.415451 -48.040321 16,900 187 393 2240
2020-02-22 13:16:51 GMT -16.400494 -48.038506 16,625 187 393 2176
2020-02-22 13:16:47 GMT -16.395466 -48.037914 16,525 187 391 2368
2020-02-22 13:16:36 GMT -16.375580 -48.035503 16,125 187 390 2368
2020-02-22 13:16:25 GMT -16.356125 -48.033142 15,700 187 389 2496
2020-02-22 13:16:16 GMT -16.339277 -48.031097 15,350 187 386 2304
2020-02-22 13:16:05 GMT -16.320051 -48.028744 14,900 187 385 2752
2020-02-22 13:16:01 GMT -16.312592 -48.027843 14,725 187 385 2688
2020-02-22 13:15:54 GMT -16.300507 -48.026398 14,450 187 384 2816
2020-02-22 13:15:50 GMT -16.294098 -48.025623 14,225 187 384 2816
2020-02-22 13:15:43 GMT -16.281372 -48.024082 13,975 187 383 2688
2020-02-22 13:15:40 GMT -16.275314 -48.023350 13,825 187 383 2688
2020-02-22 13:15:31 GMT -16.259068 -48.021435 13,425 187 382 2688
2020-02-22 13:15:28 GMT -16.254831 -48.020897 13,300 187 381 2496
2020-02-22 13:15:21 GMT -16.242168 -48.019375 13,000 187 379 2688
2020-02-22 13:15:18 GMT -16.237282 -48.018787 12,850 187 379 2688
2020-02-22 13:15:10 GMT -16.223967 -48.017170 12,525 187 377 2624
2020-02-22 13:15:07 GMT -16.217682 -48.016384 12,400 187 377 2560
2020-02-22 13:14:59 GMT -16.204834 -48.014832 12,100 187 374 2560
2020-02-22 13:14:56 GMT -16.198271 -48.013981 12,000 187 373 2560
2020-02-22 13:14:47 GMT -16.183792 -48.012215 11,725 187 371 2176
2020-02-22 13:14:44 GMT -16.178696 -48.011555 11,350 187 365 2240
2020-02-22 13:14:38 GMT -16.167801 -48.010204 11,375 187 365 2240
2020-02-22 13:14:34 GMT -16.161072 -48.009338 11,175 187 361 1216
2020-02-22 13:14:27 GMT -16.149719 -48.007942 11,100 187 357 1088
2020-02-22 13:14:23 GMT -16.142128 -48.006969 11,025 187 351 1088
2020-02-22 13:14:16 GMT -16.132141 -48.005726 10,875 187 341 1024
2020-02-22 13:14:12 GMT -16.125183 -48.004856 10,850 187 339 1088
2020-02-22 13:14:04 GMT -16.112474 -48.003288 10,700 187 328 1280
2020-02-22 13:13:53 GMT -16.096024 -48.001289 10,500 187 313 1088
2020-02-22 13:13:42 GMT -16.073557 -47.998730 9,975 187 304 2880
2020-02-22 13:13:31 GMT -16.065689 -47.997845 9,775 187 303 2752
2020-02-22 13:13:26 GMT -16.057022 -47.996906 9,450 186 300 2944
2020-02-22 13:13:20 GMT -16.050339 -47.996185 9,225 186 299 3072
2020-02-22 13:13:15 GMT -16.042320 -47.995342 8,950 187 298 2752
2020-02-22 13:13:11 GMT -16.035151 -47.994560 8,750 187 296 2944
2020-02-22 13:12:58 GMT -16.020676 -47.992908 8,250 187 293 2880
2020-02-22 13:12:46 GMT -16.005264 -47.991222 7,825 187 290 2752
2020-02-22 13:12:39 GMT -15.993533 -47.989754 7,350 188 286 2944
2020-02-22 13:12:26 GMT -15.976959 -47.987656 6,875 188 283 2496
2020-02-22 13:12:15 GMT -15.962585 -47.985535 6,400 189 277 3392
2020-02-22 13:12:04 GMT -15.948564 -47.983330 5,850 190 276 2496
2020-02-22 13:11:53 GMT -15.935120 -47.981728 5,425 177 270 192
2020-02-22 13:11:42 GMT -15.921478 -47.983223 5,300 172 256 1536
2020-02-22 13:11:31 GMT -15.908936 -47.984283 5,100 185 243 1152
2020-02-22 13:11:23 GMT -15.899638 -47.982494 5,000 206 231 1280
2020-02-22 13:11:19 GMT -15.897310 -47.981415 4,975 210 229 1472
2020-02-22 13:11:12 GMT -15.890187 -47.976215 4,850 229 216 1152
2020-02-22 13:11:01 GMT -15.883530 -47.965034 4,600 254 200 1408
2020-02-22 13:10:48 GMT -15.881622 -47.954979 4,325 266 191 2816
2020-02-22 13:10:37 GMT -15.880966 -47.944916 3,725 267 194 3520
2020-02-22 13:10:30 GMT -15.880554 -47.938168 3,400 267 194 1280
2020-02-22 13:10:26 GMT -15.880325 -47.934460 3,300 267 189 384
2020-02-22 13:10:18 GMT -15.879890 -47.927845 0 267 170
2020-02-22 13:10:15 GMT -15.879736 -47.925480 0 267 160
2020-02-22 13:10:07 GMT -15.879248 -47.917706 0 267 115
2020-02-22 13:09:53 GMT -15.878941 -47.913074 0 267 70
2020-02-22 13:09:41 GMT -15.878747 -47.910088 0 267 16
2020-02-22 13:09:30 GMT -15.878712 -47.909561 0 174 7
2020-02-22 13:09:20 GMT -15.878563 -47.909367 0 174 6

Making use of Plane Finder data

You are free to use the raw flight data, aircraft information and images provided in this report for your own purposes provided the data is correctly attributed to Plane Finder. We ask that you please credit Plane Finder and link to planefinder.net in close proximity to the content.

Optionally one of the following logos (no smaller then 150x24px) can be used and must link to planefinder.net

Embedding the Plane Finder map

You are welcome to embed the Plane Finder playback map on your website to offer visitors a more interactive experience. We suggest using the following HTML code:

<iframe src="//planefinder.net/data/report/G31923-PR-GXL-7700-squawk-2020-02-22/map" width="800" height="600" seamless="seamless"></iframe>

Where our data comes from

Plane Finder has a global network of data feeds and antenna radars that receive data broadcast directly from aircraft. The primary technologies used are ADS-B and MLAT. We also show feeds from the FAA and a FLARM glider feed.

Click here to find out more about the Plane Finder network.

How we collect our data